M I D A S
Marine Information and Data Acquisition System
Tripno 599 of the Zeeleeuw from 2003-09-26 07:01:59 to 2003-09-26 15:27:12
Back to CruiseResearch ActivitiesStationsMapUnderway DataData graphs

EquipmentUnitsComment
TimeDGPSUTC
LatitudeDGPSDM.mWGS84
LongitudeDGPSDM.mWGS84
TemperatureSBE03/SBE38deg celciusITS90
ConductivitySBE21S/mITS90
SalinitySBE21 Practical Salinity Units
ChlorophylAChelsea fluorimeterg/lCalibrated in Aceton
Missing or incorrect values are displayed as -999
Sea surface data collected by the RV Zeeleeuw from 2003-09-26 07:01:59 to 2003-09-26 15:27:12
                                                                                    Next 1000 lines
Time Latitude Longitude Temperature Conductivity Salinity ChlorophylA
2003-09-26 07:02:07 51°13.69 2°55.83 41.992582 1.123238 7.498391 0.769383
2003-09-26 07:02:13 51°13.69 2°55.82 40.658775 1.102304 7.347727 0.769383
2003-09-26 07:02:17 51°13.69 2°55.82 19.180105 1.158937 7.75592 0.769383
2003-09-26 07:02:23 51°13.69 2°55.81 18.733982 2.046626 14.376323 0.803093
2003-09-26 07:02:27 51°13.69 2°55.81 18.733982 2.046626 14.376323 0.803093
2003-09-26 07:02:33 51°13.7 2°55.8 18.802181 2.109011 14.850223 0.870512
2003-09-26 07:02:37 51°13.7 2°55.8 18.519063 2.926903 21.232307 3.162751
2003-09-26 07:02:43 51°13.7 2°55.79 18.333778 2.907958 20.963919 2.926785
2003-09-26 07:02:47 51°13.7 2°55.79 18.389287 3.330543 24.48687 3.971777
2003-09-26 07:02:53 51°13.7 2°55.78 18.395705 3.847249 28.770791 2.926785
2003-09-26 07:02:57 51°13.7 2°55.78 18.395705 3.847249 28.770791 2.926785
2003-09-26 07:03:01 51°13.7 2°55.77 18.004952 3.891522 29.17746 3.398717
2003-09-26 07:03:07 51°13.7 2°55.77 18.368372 3.892366 29.248436 3.938067
2003-09-26 07:03:11 51°13.7 2°55.76 18.456418 3.905861 29.427319 2.758238
2003-09-26 07:03:15 51°13.7 2°55.76 18.81811 3.790968 28.520068 2.65711
2003-09-26 07:03:21 51°13.7 2°55.75 18.921124 3.820691 28.811987 3.297589
2003-09-26 07:03:25 51°13.7 2°55.75 18.921124 3.820691 28.811987 3.297589
2003-09-26 07:03:31 51°13.7 2°55.75 18.575498 3.823643 28.858462 3.634683
2003-09-26 07:03:35 51°13.7 2°55.74 18.639933 3.886572 29.393359 3.331298
2003-09-26 07:03:41 51°13.7 2°55.74 18.542245 3.765779 28.350726 3.263879
2003-09-26 07:03:47 51°13.7 2°55.74 18.805433 3.881089 29.244357 3.398717
2003-09-26 07:03:51 51°13.7 2°55.74 18.180608 3.886463 29.20535 3.735811
2003-09-26 07:03:55 51°13.7 2°55.75 18.180608 3.886463 29.20535 3.735811
2003-09-26 07:04:01 51°13.7 2°55.75 18.496492 3.66608 27.324955 3.702101
2003-09-26 07:04:05 51°13.7 2°55.75 18.868011 3.279362 24.147303 2.690819
2003-09-26 07:04:11 51°13.7 2°55.75 18.146917 3.080786 22.552975 2.893076
2003-09-26 07:04:17 51°13.71 2°55.75 18.00237 2.871658 20.887529 2.65711
2003-09-26 07:04:21 51°13.71 2°55.75 17.744725 3.160903 23.247812 2.522272
2003-09-26 07:04:27 51°13.71 2°55.75 17.744725 3.160903 23.247812 2.522272
2003-09-26 07:04:31 51°13.71 2°55.76 18.167732 2.821257 20.487913 2.825657
2003-09-26 07:04:35 51°13.71 2°55.76 17.940716 3.376466 24.993048 4.612255
2003-09-26 07:04:41 51°13.72 2°55.76 17.872791 3.745543 28.179053 4.679674
2003-09-26 07:04:47 51°13.72 2°55.76 17.81002 3.876875 29.351334 4.275161
2003-09-26 07:04:52 51°13.73 2°55.75 17.498114 3.874662 29.398279 4.207742
2003-09-26 07:04:57 51°13.73 2°55.75 17.498114 3.874662 29.398279 4.207742
2003-09-26 07:05:02 51°13.73 2°55.75 17.810479 3.892584 29.606701 4.174033
2003-09-26 07:05:07 51°13.74 2°55.75 18.082896 3.872766 29.457727 4.140324
2003-09-26 07:05:11 51°13.74 2°55.74 17.876254 3.878037 29.516739 4.072905
2003-09-26 07:05:17 51°13.74 2°55.74 18.080567 3.888473 29.607249 4.106614
2003-09-26 07:05:21 51°13.75 2°55.73 18.206146 3.862858 29.394126 4.072905
2003-09-26 07:05:27 51°13.75 2°55.73 18.206146 3.862858 29.394126 4.072905
2003-09-26 07:05:31 51°13.76 2°55.72 17.626386 3.889 29.617612 4.140324
2003-09-26 07:05:35 51°13.76 2°55.72 17.66029 3.874242 29.494759 4.241452
2003-09-26 07:05:41 51°13.77 2°55.71 17.865365 3.901123 29.72303 4.578546
2003-09-26 07:05:47 51°13.78 2°55.7 17.931671 3.894798 29.672109 4.241452
2003-09-26 07:05:51 51°13.78 2°55.69 17.965259 3.879302 29.542422 4.005486
2003-09-26 07:05:55 51°13.79 2°55.68 17.965259 3.879302 29.542422 4.005486
2003-09-26 07:06:01 51°13.79 2°55.67 17.895941 3.865283 29.42743 3.971777
2003-09-26 07:06:08 51°13.8 2°55.66 17.791144 3.827125 29.107237 3.971777
2003-09-26 07:06:11 51°13.81 2°55.66 17.994375 3.818904 29.037738 3.938067
2003-09-26 07:06:15 51°13.82 2°55.65 17.885597 3.84009 29.218468 4.039195
2003-09-26 07:06:22 51°13.83 2°55.64 17.920166 3.844728 29.259297 4.106614
2003-09-26 07:06:28 51°13.84 2°55.63 17.920166 3.844728 29.259297 4.106614
2003-09-26 07:06:32 51°13.84 2°55.62 17.987919 3.840828 29.228946 4.140324
2003-09-26 07:06:36 51°13.85 2°55.62 18.056439 3.834188 29.173295 4.072905
2003-09-26 07:06:41 51°13.86 2°55.61 17.819038 3.819747 29.052232 4.140324
2003-09-26 07:06:47 51°13.87 2°55.6 17.958343 3.815953 29.022258 4.275161
2003-09-26 07:06:52 51°13.88 2°55.59 17.821752 3.796664 28.860831 4.174033
2003-09-26 07:06:56 51°13.89 2°55.59 17.821752 3.796664 28.860831 4.174033
2003-09-26 07:07:01 51°13.9 2°55.58 17.800791 3.777482 28.701448 4.072905
2003-09-26 07:07:08 51°13.91 2°55.57 17.922626 3.803726 28.924164 4.039195
2003-09-26 07:07:11 51°13.92 2°55.56 17.651167 3.787389 28.786144 3.938067
2003-09-26 07:07:15 51°13.93 2°55.56 17.991501 3.7915 28.820341 3.836939
2003-09-26 07:07:20 51°13.94 2°55.55 17.514093 3.793186 28.834063 3.836939
2003-09-26 07:07:27 51°13.95 2°55.54 17.514093 3.793186 28.834063 3.836939
2003-09-26 07:07:31 51°13.96 2°55.54 17.790475 3.796454 28.862188 3.76952
2003-09-26 07:07:37 51°13.97 2°55.53 17.654641 3.823647 29.091532 3.702101
2003-09-26 07:07:41 51°13.98 2°55.52 17.624168 3.794556 28.845638 3.668392
2003-09-26 07:07:47 51°13.99 2°55.51 17.662717 3.817112 29.036795 3.567264
2003-09-26 07:07:51 51°14 2°55.51 17.973674 3.845572 29.277571 3.533554
2003-09-26 07:07:55 51°14.01 2°55.5 17.973674 3.845572 29.277571 3.533554
2003-09-26 07:08:01 51°14.02 2°55.5 17.699823 3.832185 29.163753 3.466136
2003-09-26 07:08:07 51°14.03 2°55.49 17.871456 3.835347 29.18945 3.398717
2003-09-26 07:08:11 51°14.04 2°55.48 17.80029 3.871818 29.497201 3.398717
2003-09-26 07:08:16 51°14.05 2°55.48 17.831646 3.875824 29.529539 3.331298
2003-09-26 07:08:22 51°14.06 2°55.47 17.652506 3.862964 29.419521 3.297589
2003-09-26 07:08:28 51°14.07 2°55.46 17.652506 3.862964 29.419521 3.297589
2003-09-26 07:08:32 51°14.08 2°55.45 17.888809 3.895536 29.693961 3.263879
2003-09-26 07:08:36 51°14.09 2°55.45 17.848257 3.89775 29.713273 3.23017
2003-09-26 07:08:42 51°14.1 2°55.44 17.86378 3.919466 29.897528 3.23017
2003-09-26 07:08:47 51°14.11 2°55.43 17.737369 3.881095 29.57528 3.19646
2003-09-26 07:08:51 51°14.12 2°55.42 18.082147 3.896801 29.707919 3.19646
2003-09-26 07:08:55 51°14.13 2°55.42 18.082147 3.896801 29.707919 3.19646
2003-09-26 07:09:01 51°14.14 2°55.41 18.016193 3.913352 29.852127 3.129042
2003-09-26 07:09:07 51°14.15 2°55.4 18.180317 3.885206 29.61711 3.162751
2003-09-26 07:09:12 51°14.16 2°55.39 17.931797 3.906605 29.80027 3.162751
2003-09-26 07:09:16 51°14.17 2°55.38 18.028931 3.91156 29.845574 3.19646
2003-09-26 07:09:22 51°14.18 2°55.37 17.922084 3.918412 29.90647 3.297589
2003-09-26 07:09:27 51°14.19 2°55.36 17.922084 3.918412 29.90647 3.297589
2003-09-26 07:09:31 51°14.2 2°55.35 18.121897 3.917569 29.900934 3.365007
2003-09-26 07:09:35 51°14.2 2°55.34 17.464593 3.930324 30.009847 3.331298
2003-09-26 07:09:39 51°14.21 2°55.33 18.082355 3.931484 30.022969 3.23017
2003-09-26 07:09:47 51°14.23 2°55.31 18.084393 3.932327 30.033952 3.297589
2003-09-26 07:09:51 51°14.23 2°55.3 17.878548 3.882782 29.61857 3.297589
2003-09-26 07:09:57 51°14.24 2°55.28 17.878548 3.882782 29.61857 3.297589
2003-09-26 07:10:01 51°14.25 2°55.27 18.254331 3.86191 29.443145 3.19646
2003-09-26 07:10:07 51°14.26 2°55.25 17.981255 3.878776 29.588879 3.162751
2003-09-26 07:10:11 51°14.27 2°55.24 17.63522 3.934014 30.06193 3.19646
2003-09-26 07:10:17 51°14.28 2°55.22 17.771469 3.936966 30.090862 3.129042
2003-09-26 07:10:21 51°14.28 2°55.21 18.0072 3.940656 30.123348 3.095332
2003-09-26 07:10:27 51°14.29 2°55.19 18.0072 3.940656 30.123348 3.095332
2003-09-26 07:10:31 51°14.3 2°55.18 17.869788 3.94034 30.119563 3.095332
2003-09-26 07:10:35 51°14.31 2°55.17 17.627056 3.936966 30.091955 3.095332
2003-09-26 07:10:39 51°14.32 2°55.15 17.768377 3.937704 30.096593 3.129042
2003-09-26 07:10:47 51°14.33 2°55.13 18.045662 3.937177 30.093749 3.095332
2003-09-26 07:10:51 51°14.34 2°55.11 17.844292 3.937599 30.098976 3.095332
2003-09-26 07:10:55 51°14.34 2°55.1 17.844292 3.937599 30.098976 3.095332
2003-09-26 07:11:01 51°14.35 2°55.08 17.607335 3.938021 30.104204 3.19646
2003-09-26 07:11:07 51°14.36 2°55.06 17.852555 3.94034 30.125581 3.162751
2003-09-26 07:11:11 51°14.37 2°55.05 17.95501 3.946244 30.176376 3.23017
2003-09-26 07:11:15 51°14.38 2°55.04 17.957343 3.95278 30.232571 3.23017
2003-09-26 07:11:21 51°14.39 2°55.01 17.854725 3.960687 30.296603 3.263879
2003-09-26 07:11:27 51°14.39 2°54.99 17.854725 3.960687 30.296603 3.263879
2003-09-26 07:11:31 51°14.4 2°54.98 17.951551 3.969753 30.372729 3.263879
2003-09-26 07:11:35 51°14.41 2°54.96 17.75346 3.977449 30.433328 3.263879
2003-09-26 07:11:41 51°14.42 2°54.94 17.815406 3.982088 30.47175 3.331298
2003-09-26 07:11:47 51°14.43 2°54.92 17.730555 3.990206 30.540385 3.297589
2003-09-26 07:11:51 51°14.44 2°54.91 18.032885 3.995267 30.58075 3.331298
2003-09-26 07:11:57 51°14.45 2°54.89 18.032885 3.995267 30.58075 3.331298
2003-09-26 07:11:59 51°14.45 2°54.88 17.69288 3.996426 30.592859 3.398717
2003-09-26 07:12:05 51°14.46 2°54.86 17.596487 3.999484 30.622823 3.331298
2003-09-26 07:12:11 51°14.47 2°54.84 18.016942 4.011081 30.730685 3.398717
2003-09-26 07:12:15 51°14.48 2°54.82 17.88664 4.019411 30.812985 3.466136
2003-09-26 07:12:19 51°14.49 2°54.81 17.587607 4.033328 30.939196 3.600973
2003-09-26 07:12:27 51°14.51 2°54.79 17.587607 4.033328 30.939196 3.600973
2003-09-26 07:12:32 51°14.52 2°54.77 17.525918 4.056736 31.145595 3.634683
2003-09-26 07:12:36 51°14.53 2°54.76 17.845795 4.070759 31.266199 3.76952
2003-09-26 07:12:41 51°14.54 2°54.75 17.715964 4.090899 31.436417 3.735811
2003-09-26 07:12:47 51°14.56 2°54.74 17.863404 4.09712 31.485146 3.76952
2003-09-26 07:12:51 51°14.57 2°54.73 17.596278 4.118314 31.661658 3.76952
2003-09-26 07:12:55 51°14.58 2°54.72 17.596278 4.118314 31.661658 3.76952
2003-09-26 07:13:01 51°14.59 2°54.7 17.980964 4.124747 31.711053 3.735811
2003-09-26 07:13:07 51°14.61 2°54.69 17.988003 4.136346 31.804762 3.735811
2003-09-26 07:13:11 51°14.62 2°54.68 17.724619 4.148367 31.901522 3.702101
2003-09-26 07:13:15 51°14.63 2°54.68 18.037297 4.153324 31.937664 3.668392
2003-09-26 07:13:19 51°14.64 2°54.67 17.906866 4.160389 31.993641 3.668392
2003-09-26 07:13:27 51°14.66 2°54.65 17.906866 4.160389 31.993641 3.668392
2003-09-26 07:13:31 51°14.67 2°54.64 17.738748 4.167982 32.050649 3.668392
2003-09-26 07:13:37 51°14.69 2°54.63 17.947217 4.17104 32.069902 3.668392
2003-09-26 07:13:41 51°14.7 2°54.62 17.91829 4.178 32.124963 3.600973
2003-09-26 07:13:47 51°14.72 2°54.61 17.747943 4.178843 32.125201 3.533554
2003-09-26 07:13:51 51°14.73 2°54.6 17.855935 4.184854 32.171524 3.432426
2003-09-26 07:13:55 51°14.74 2°54.6 17.855935 4.184854 32.171524 3.432426
2003-09-26 07:14:01 51°14.76 2°54.59 17.959218 4.186014 32.177973 3.398717
2003-09-26 07:14:07 51°14.77 2°54.57 17.856394 4.185592 32.172601 3.297589
2003-09-26 07:14:11 51°14.78 2°54.57 17.892855 4.191709 32.22099 3.365007
2003-09-26 07:14:15 51°14.8 2°54.56 17.932547 4.192869 32.228019 3.263879
2003-09-26 07:14:21 51°14.81 2°54.55 18.074327 4.195611 32.24862 3.23017
2003-09-26 07:14:27 51°14.83 2°54.54 18.074327 4.195611 32.24862 3.23017
2003-09-26 07:14:31 51°14.84 2°54.54 17.908159 4.193818 32.231483 3.263879
2003-09-26 07:14:35 51°14.85 2°54.53 18.050281 4.197931 32.265014 3.297589
2003-09-26 07:14:41 51°14.87 2°54.52 18.259019 4.199618 32.277735 3.297589
2003-09-26 07:14:47 51°14.89 2°54.51 18.160919 4.202676 32.301047 3.23017
2003-09-26 07:14:51 51°14.9 2°54.51 17.687275 4.204047 32.310466 3.23017
2003-09-26 07:14:55 51°14.91 2°54.5 17.687275 4.204047 32.310466 3.23017
2003-09-26 07:15:01 51°14.93 2°54.49 17.82672 4.204891 32.312429 3.263879
2003-09-26 07:15:07 51°14.94 2°54.48 18.20299 4.205629 32.31759 3.263879
2003-09-26 07:15:11 51°14.96 2°54.47 18.409946 4.204574 32.303856 3.19646
2003-09-26 07:15:15 51°14.97 2°54.46 18.208222 4.209215 32.339556 3.23017
2003-09-26 07:15:21 51°14.98 2°54.45 18.515136 4.208371 32.331146 3.23017
2003-09-26 07:15:25 51°15 2°54.45 18.515136 4.208371 32.331146 3.23017
2003-09-26 07:15:31 51°15.01 2°54.44 18.142803 4.214171 32.376794 3.162751
2003-09-26 07:15:35 51°15.02 2°54.43 17.972841 4.217229 32.400681 3.19646
2003-09-26 07:15:41 51°15.04 2°54.42 18.076823 4.213855 32.369385 3.129042
2003-09-26 07:15:47 51°15.06 2°54.42 18.554102 4.218073 32.403219 3.129042
2003-09-26 07:15:51 51°15.07 2°54.41 17.84062 4.218811 32.410139 3.162751
2003-09-26 07:15:57 51°15.09 2°54.4 17.84062 4.218811 32.410139 3.162751
2003-09-26 07:16:01 51°15.1 2°54.4 18.11483 4.212273 32.349955 3.129042
2003-09-26 07:16:07 51°15.12 2°54.39 17.980131 4.219128 32.408741 3.19646
2003-09-26 07:16:11 51°15.13 2°54.38 17.810187 4.212694 32.351227 3.23017
2003-09-26 07:16:15 51°15.14 2°54.38 18.015194 4.217862 32.395539 3.263879
2003-09-26 07:16:21 51°15.16 2°54.37 18.322049 4.222186 32.432623 3.263879
2003-09-26 07:16:27 51°15.17 2°54.37 18.322049 4.222186 32.432623 3.263879
2003-09-26 07:16:31 51°15.18 2°54.37 18.014819 4.217651 32.391382 3.297589
2003-09-26 07:16:37 51°15.2 2°54.38 18.049948 4.218706 32.399252 3.297589
2003-09-26 07:16:41 51°15.21 2°54.38 18.287597 4.217651 32.389622 3.297589
2003-09-26 07:16:47 51°15.23 2°54.39 18.0174 4.221448 32.421591 3.297589
2003-09-26 07:16:51 51°15.24 2°54.39 17.984379 4.21512 32.364402 3.263879
2003-09-26 07:16:55 51°15.25 2°54.4 17.984379 4.21512 32.364402 3.263879
2003-09-26 07:17:01 51°15.27 2°54.4 17.916956 4.223557 32.437917 3.23017
2003-09-26 07:17:07 51°15.28 2°54.41 18.021147 4.22419 32.442756 3.129042
2003-09-26 07:17:11 51°15.29 2°54.41 17.987919 4.223768 32.437963 3.162751
2003-09-26 07:17:15 51°15.31 2°54.41 17.954385 4.220709 32.414086 3.129042
2003-09-26 07:17:21 51°15.32 2°54.42 18.261881 4.225033 32.449404 3.095332
2003-09-26 07:17:25 51°15.33 2°54.42 18.261881 4.225033 32.449404 3.095332
2003-09-26 07:17:31 51°15.35 2°54.42 17.887641 4.217862 32.385563 3.027913
2003-09-26 07:17:37 51°15.37 2°54.43 17.614244 4.225033 32.447641 3.061623
2003-09-26 07:17:41 51°15.38 2°54.43 17.718682 4.223768 32.436201 3.027913
2003-09-26 07:17:47 51°15.4 2°54.43 17.889935 4.222291 32.422953 2.994204
2003-09-26 07:17:51 51°15.41 2°54.43 17.959801 4.217229 32.379552 2.893076
2003-09-26 07:17:55 51°15.42 2°54.43 17.959801 4.217229 32.379552 2.893076
2003-09-26 07:18:01 51°15.44 2°54.44 18.233334 4.226826 32.462428 2.994204
2003-09-26 07:18:07 51°15.45 2°54.44 17.620399 4.224717 32.442577 2.926785
2003-09-26 07:18:11 51°15.47 2°54.44 17.997081 4.225561 32.449224 2.926785
2003-09-26 07:18:15 51°15.48 2°54.44 17.896525 4.226404 32.456459 2.791947
2003-09-26 07:18:21 51°15.49 2°54.44 17.659411 4.225455 32.446556 2.791947
2003-09-26 07:18:27 51°15.51 2°54.45 17.659411 4.225455 32.446556 2.791947
2003-09-26 07:18:31 51°15.52 2°54.45 18.036173 4.219338 32.393527 2.791947
2003-09-26 07:18:35 51°15.53 2°54.45 18.003744 4.222291 32.418842 2.859366
2003-09-26 07:18:41 51°15.55 2°54.44 18.073287 4.229568 32.479474 2.791947
2003-09-26 07:18:47 51°15.57 2°54.44 17.93834 4.229146 32.474092 2.825657
2003-09-26 07:18:51 51°15.58 2°54.44 18.076282 4.229779 32.47893 2.994204
2003-09-26 07:18:55 51°15.59 2°54.44 18.076282 4.229779 32.47893 2.994204
2003-09-26 07:19:01 51°15.61 2°54.43 18.043373 4.229252 32.474408 2.926785
2003-09-26 07:19:07 51°15.63 2°54.43 17.975341 4.230201 32.480783 3.027913
2003-09-26 07:19:11 51°15.64 2°54.43 18.147415 4.229884 32.476306 3.19646
2003-09-26 07:19:17 51°15.66 2°54.42 17.97759 4.230095 32.477526 3.19646
2003-09-26 07:19:21 51°15.67 2°54.42 18.420708 4.232099 32.49353 3.19646
2003-09-26 07:19:27 51°15.69 2°54.41 18.420708 4.232099 32.49353 3.19646
2003-09-26 07:19:31 51°15.7 2°54.41 17.911369 4.231994 32.491449 3.19646
2003-09-26 07:19:37 51°15.72 2°54.4 18.015735 4.228408 32.458945 3.162751
2003-09-26 07:19:41 51°15.73 2°54.4 18.01586 4.233576 32.503248 3.162751
2003-09-26 07:19:47 51°15.74 2°54.4 18.188249 4.229463 32.467398 3.162751
2003-09-26 07:19:51 51°15.76 2°54.4 17.71241 4.233892 32.503606 3.061623
2003-09-26 07:19:55 51°15.77 2°54.39 17.71241 4.233892 32.503606 3.061623
2003-09-26 07:20:01 51°15.79 2°54.39 17.75137 4.22767 32.453205 3.129042
2003-09-26 07:20:07 51°15.8 2°54.39 18.236239 4.235263 32.513595 3.095332
2003-09-26 07:20:11 51°15.81 2°54.38 17.973466 4.234736 32.506721 3.027913
2003-09-26 07:20:15 51°15.83 2°54.38 18.049323 4.237478 32.530228 2.926785
2003-09-26 07:20:21 51°15.84 2°54.37 18.297134 4.236423 32.518832 2.893076
2003-09-26 07:20:27 51°15.86 2°54.36 18.297134 4.236423 32.518832 2.893076
2003-09-26 07:20:31 51°15.87 2°54.35 17.623456 4.230728 32.470606 2.859366
2003-09-26 07:20:37 51°15.89 2°54.34 18.177825 4.234314 32.494283 2.825657
2003-09-26 07:20:41 51°15.9 2°54.33 18.222668 4.236634 32.510639 2.859366
2003-09-26 07:20:47 51°15.91 2°54.32 17.923376 4.23811 32.516233 2.893076
2003-09-26 07:20:51 51°15.92 2°54.31 18.342811 4.239692 32.526259 2.994204
2003-09-26 07:20:57 51°15.94 2°54.29 18.342811 4.239692 32.526259 2.994204
2003-09-26 07:21:01 51°15.95 2°54.28 18.220634 4.242434 32.541515 3.095332
2003-09-26 07:21:07 51°15.96 2°54.26 17.824674 4.243067 32.543406 3.23017
2003-09-26 07:21:11 51°15.97 2°54.25 17.835361 4.24159 32.520765 3.23017
2003-09-26 07:21:15 51°15.98 2°54.24 18.055232 4.24507 32.545276 3.263879
2003-09-26 07:21:21 51°15.99 2°54.22 18.271505 4.243805 32.5268 3.263879
2003-09-26 07:21:27 51°16 2°54.21 18.271505 4.243805 32.5268 3.263879
2003-09-26 07:21:31 51°16.01 2°54.2 18.31438 4.247179 32.548049 3.23017
2003-09-26 07:21:35 51°16.02 2°54.19 18.051487 4.248339 32.5474 3.19646
2003-09-26 07:21:41 51°16.03 2°54.18 18.228894 4.250027 32.552438 3.23017
2003-09-26 07:21:47 51°16.04 2°54.17 17.964843 4.250237 32.542499 3.19646
2003-09-26 07:21:51 51°16.05 2°54.16 18.106141 4.250976 32.540009 3.23017
2003-09-26 07:21:57 51°16.06 2°54.16 18.106141 4.250976 32.540009 3.23017
2003-09-26 07:22:01 51°16.06 2°54.15 18.112752 4.252768 32.545363 3.19646
2003-09-26 07:22:07 51°16.07 2°54.15 18.084684 4.252346 32.535307 3.162751
2003-09-26 07:22:11 51°16.08 2°54.15 18.08955 4.255088 32.550529 3.162751
2003-09-26 07:22:15 51°16.08 2°54.15 18.093625 4.256459 32.554621 3.19646
2003-09-26 07:22:21 51°16.09 2°54.15 18.470399 4.250869 32.498681 3.19646
2003-09-26 07:22:27 51°16.1 2°54.16 18.470399 4.250869 32.498681 3.19646
2003-09-26 07:22:31 51°16.1 2°54.16 18.339123 4.250131 32.486529 3.19646
2003-09-26 07:22:37 51°16.11 2°54.16 18.308328 4.257514 32.544876 3.23017
2003-09-26 07:22:41 51°16.11 2°54.16 18.003369 4.258779 32.552753 3.23017
2003-09-26 07:22:47 51°16.12 2°54.17 18.107638 4.259095 32.550768 3.19646
2003-09-26 07:22:51 51°16.12 2°54.17 18.279385 4.254033 32.504048 3.297589
2003-09-26 07:22:57 51°16.13 2°54.17 18.279385 4.254033 32.504048 3.297589
2003-09-26 07:23:01 51°16.13 2°54.18 18.077863 4.260677 32.557829 3.331298
2003-09-26 07:23:07 51°16.13 2°54.18 17.977882 4.259095 32.540815 3.263879
2003-09-26 07:23:11 51°16.14 2°54.18 18.353086 4.259623 32.542974 3.297589
2003-09-26 07:23:15 51°16.14 2°54.19 18.150781 4.259623 32.541803 3.331298
2003-09-26 07:23:21 51°16.14 2°54.19 18.117325 4.262576 32.56349 3.263879
2003-09-26 07:23:27 51°16.15 2°54.19 18.117325 4.262576 32.56349 3.263879
2003-09-26 07:23:31 51°16.15 2°54.2 18.28909 4.261415 32.55242 3.331298
2003-09-26 07:23:35 51°16.15 2°54.2 17.846546 4.259517 32.533883 3.398717
2003-09-26 07:23:41 51°16.16 2°54.2 18.392392 4.253083 32.479005 3.365007
2003-09-26 07:23:47 51°16.16 2°54.21 17.369856 4.262786 32.560021 3.365007
2003-09-26 07:23:51 51°16.17 2°54.21 17.372713 4.263525 32.566905 3.331298
2003-09-26 07:23:55 51°16.17 2°54.21 17.372713 4.263525 32.566905 3.331298
2003-09-26 07:24:01 51°16.17 2°54.21 17.373974 4.25456 32.489262 3.331298
2003-09-26 07:24:07 51°16.18 2°54.22 17.376705 4.263841 32.568434 3.297589
2003-09-26 07:24:11 51°16.18 2°54.22 17.376831 4.264263 32.569106 3.398717
2003-09-26 07:24:17 51°16.19 2°54.22 17.378806 4.253927 32.478027 3.432426
2003-09-26 07:24:21 51°16.19 2°54.23 17.413503 4.263314 32.555156 3.331298
2003-09-26 07:24:27 51°16.19 2°54.23 17.413503 4.263314 32.555156 3.331298
2003-09-26 07:24:31 51°16.2 2°54.23 17.383007 4.262048 32.541437 3.331298
2003-09-26 07:24:35 51°16.2 2°54.23 17.384562 4.266899 32.579889 3.263879
2003-09-26 07:24:41 51°16.2 2°54.24 17.419718 4.266478 32.574535 3.263879
2003-09-26 07:24:45 51°16.2 2°54.24 17.386074 4.267638 32.583844 3.23017
2003-09-26 07:24:51 51°16.21 2°54.24 17.387167 4.268165 32.586585 3.23017
2003-09-26 07:24:55 51°16.21 2°54.24 17.387167 4.268165 32.586585 3.23017
2003-09-26 07:25:01 51°16.21 2°54.25 17.384478 4.267216 32.574978 3.19646
2003-09-26 07:25:07 51°16.22 2°54.25 17.384898 4.258989 32.501923 3.23017
2003-09-26 07:25:11 51°16.22 2°54.25 17.3841 4.266477 32.565173 3.19646
2003-09-26 07:25:15 51°16.22 2°54.25 17.385234 4.269852 32.594536 3.23017
2003-09-26 07:25:21 51°16.23 2°54.26 17.384646 4.268376 32.580189 3.23017
2003-09-26 07:25:25 51°16.23 2°54.26 17.384646 4.268376 32.580189 3.23017
2003-09-26 07:25:31 51°16.23 2°54.26 17.386158 4.271118 32.602986 3.23017
2003-09-26 07:25:35 51°16.23 2°54.26 17.420222 4.271856 32.608695 3.23017
2003-09-26 07:25:41 51°16.24 2°54.26 17.419634 4.268059 32.576322 3.23017
2003-09-26 07:25:47 51°16.24 2°54.26 17.420264 4.267321 32.571197 3.263879
2003-09-26 07:25:51 51°16.24 2°54.27 17.386284 4.260888 32.51752 3.23017
2003-09-26 07:25:55 51°16.24 2°54.27 17.386284 4.260888 32.51752 3.23017
2003-09-26 07:26:01 51°16.24 2°54.27 17.38578 4.269747 32.590124 3.23017
2003-09-26 07:26:07 51°16.25 2°54.27 17.388595 4.261731 32.521792 3.263879
2003-09-26 07:26:11 51°16.25 2°54.27 17.388889 4.269641 32.593908 3.297589
2003-09-26 07:26:15 51°16.25 2°54.27 17.388847 4.271962 32.610766 3.263879
2003-09-26 07:26:21 51°16.25 2°54.26 17.389435 4.271223 32.602128 3.263879
2003-09-26 07:26:27 51°16.25 2°54.26 17.389435 4.271223 32.602128 3.263879
2003-09-26 07:26:31 51°16.25 2°54.26 17.389561 4.269641 32.592151 3.263879
2003-09-26 07:26:37 51°16.25 2°54.26 17.389813 4.270907 32.597089 3.23017
2003-09-26 07:26:41 51°16.24 2°54.26 17.391452 4.271223 32.603299 3.263879
2003-09-26 07:26:47 51°16.24 2°54.26 17.389729 4.27038 32.59552 3.365007
2003-09-26 07:26:51 51°16.24 2°54.26 17.389939 4.271329 32.6001 3.331298
2003-09-26 07:26:57 51°16.24 2°54.26 17.389939 4.271329 32.6001 3.331298
2003-09-26 07:27:01 51°16.24 2°54.26 17.388469 4.271223 32.599787 3.365007
2003-09-26 07:27:07 51°16.24 2°54.25 17.389351 4.270063 32.588725 3.398717
2003-09-26 07:27:11 51°16.24 2°54.25 17.390906 4.272489 32.610578 3.398717
2003-09-26 07:27:15 51°16.24 2°54.25 17.39183 4.27038 32.592008 3.398717
2003-09-26 07:27:21 51°16.24 2°54.25 17.39078 4.272278 32.60995 3.365007
2003-09-26 07:27:27 51°16.24 2°54.25 17.39078 4.272278 32.60995 3.365007
2003-09-26 07:27:31 51°16.24 2°54.25 17.389561 4.272067 32.608152 3.365007
2003-09-26 07:27:35 51°16.24 2°54.25 17.424421 4.271856 32.606939 3.398717
2003-09-26 07:27:41 51°16.24 2°54.24 17.389183 4.270169 32.59138 3.466136
2003-09-26 07:27:47 51°16.24 2°54.24 17.389267 4.269958 32.587826 3.432426
2003-09-26 07:27:51 51°16.24 2°54.24 17.388595 4.271012 32.597988 3.499845
2003-09-26 07:27:57 51°16.24 2°54.24 17.388595 4.271012 32.597988 3.499845
2003-09-26 07:28:01 51°16.24 2°54.24 17.422321 4.270485 32.593492 3.466136
2003-09-26 07:28:07 51°16.23 2°54.24 17.387881 4.271645 32.603384 3.432426
2003-09-26 07:28:11 51°16.23 2°54.24 17.387797 4.271118 32.595376 3.331298
2003-09-26 07:28:15 51°16.23 2°54.24 17.388469 4.271118 32.598887 3.432426
2003-09-26 07:28:21 51°16.23 2°54.23 17.390191 4.269536 32.585985 3.398717
2003-09-26 07:28:27 51°16.23 2°54.23 17.390191 4.269536 32.585985 3.398717
2003-09-26 07:28:31 51°16.23 2°54.23 17.388637 4.271434 32.601 3.398717
2003-09-26 07:28:35 51°16.23 2°54.23 17.389351 4.27038 32.59552 3.432426
2003-09-26 07:28:41 51°16.23 2°54.23 17.388511 4.27154 32.599557 3.432426
2003-09-26 07:28:45 51°16.23 2°54.23 17.387797 4.270696 32.596461 3.398717
2003-09-26 07:28:51 51°16.23 2°54.22 17.387251 4.270591 32.596733 3.432426
2003-09-26 07:28:55 51°16.23 2°54.22 17.387251 4.270591 32.596733 3.432426
2003-09-26 07:29:01 51°16.23 2°54.22 17.388385 4.272067 32.608152 3.432426
2003-09-26 07:29:07 51°16.23 2°54.22 17.387839 4.272489 32.609992 3.466136
2003-09-26 07:29:11 51°16.23 2°54.22 17.422279 4.270274 32.590523 3.432426
2003-09-26 07:29:15 51°16.23 2°54.22 17.387503 4.270169 32.59138 3.398717
2003-09-26 07:29:21 51°16.23 2°54.21 17.388007 4.270802 32.595019 3.432426
2003-09-26 07:29:27 51°16.23 2°54.21 17.388007 4.270802 32.595019 3.432426
2003-09-26 07:29:31 51°16.23 2°54.21 17.388595 4.27386 32.622268 3.432426
2003-09-26 07:29:35 51°16.23 2°54.21 17.389141 4.270696 32.597632 3.365007
2003-09-26 07:29:41 51°16.24 2°54.2 17.389939 4.271118 32.604157 3.432426
2003-09-26 07:29:47 51°16.25 2°54.19 17.389183 4.270591 32.595562 3.432426
2003-09-26 07:29:51 51°16.25 2°54.18 17.422112 4.270696 32.595876 3.499845
2003-09-26 07:29:55 51°16.26 2°54.17 17.422112 4.270696 32.595876 3.499845
2003-09-26 07:30:01 51°16.27 2°54.16 17.38368 4.270802 32.597361 3.466136
2003-09-26 07:30:07 51°16.28 2°54.14 17.379772 4.270696 32.596461 3.499845
2003-09-26 07:30:11 51°16.28 2°54.13 17.380192 4.269641 32.58981 3.466136
2003-09-26 07:30:15 51°16.29 2°54.12 17.382251 4.270169 32.591965 3.499845
2003-09-26 07:30:21 51°16.3 2°54.1 17.381873 4.269747 32.591295 3.466136
2003-09-26 07:30:27 51°16.32 2°54.08 17.381873 4.269747 32.591295 3.466136
2003-09-26 07:30:31 51°16.32 2°54.07 17.448434 4.27038 32.59669 3.398717
2003-09-26 07:30:35 51°16.33 2°54.05 17.367376 4.270802 32.598531 3.331298
2003-09-26 07:30:41 51°16.35 2°54.03 17.365821 4.270274 32.596962 3.398717
2003-09-26 07:30:47 51°16.36 2°54.01 17.389939 4.26922 32.588554 3.466136
2003-09-26 07:30:51 51°16.37 2°53.99 17.349178 4.267743 32.575379 3.533554
2003-09-26 07:30:55 51°16.38 2°53.98 17.349178 4.267743 32.575379 3.533554
2003-09-26 07:31:01 51°16.4 2°53.95 17.348337 4.269852 32.597463 3.432426
2003-09-26 07:31:07 51°16.41 2°53.92 17.343334 4.268376 32.583701 3.365007
2003-09-26 07:31:11 51°16.42 2°53.91 17.343334 4.269747 32.601834 3.331298
2003-09-26 07:31:15 51°16.43 2°53.89 17.379856 4.267743 32.584743 3.19646
2003-09-26 07:31:21 51°16.45 2°53.86 17.352624 4.264157 32.562938 3.129042
2003-09-26 07:31:27 51°16.46 2°53.84 17.352624 4.264157 32.562938 3.129042
2003-09-26 07:31:31 51°16.47 2°53.82 17.369267 4.264263 32.565008 3.027913
2003-09-26 07:31:37 51°16.49 2°53.79 17.380528 4.263525 32.564563 2.893076
2003-09-26 07:31:41 51°16.49 2°53.77 17.390317 4.263103 32.562135 2.825657
2003-09-26 07:31:47 51°16.51 2°53.75 17.396829 4.263208 32.563035 2.758238
2003-09-26 07:31:51 51°16.52 2°53.73 17.403045 4.262892 32.559165 2.758238
2003-09-26 07:31:57 51°16.53 2°53.7 17.403045 4.262892 32.559165 2.758238
2003-09-26 07:32:01 51°16.54 2°53.68 17.438654 4.262997 32.557138 2.65711
2003-09-26 07:32:07 51°16.55 2°53.65 17.439661 4.264157 32.560597 2.6234
2003-09-26 07:32:11 51°16.56 2°53.64 17.406279 4.267321 32.577633 2.6234
2003-09-26 07:32:15 51°16.57 2°53.62 17.405859 4.269009 32.585 2.6234
2003-09-26 07:32:21 51°16.59 2°53.59 17.405271 4.271645 32.603969 2.690819
2003-09-26 07:32:27 51°16.6 2°53.56 17.405271 4.271645 32.603969 2.690819
2003-09-26 07:32:31 51°16.61 2°53.54 17.405859 4.272278 32.601754 2.6234
2003-09-26 07:32:37 51°16.63 2°53.52 17.44134 4.274071 32.615282 2.555982
2003-09-26 07:32:41 51°16.64 2°53.5 17.406027 4.274809 32.620404 2.555982
2003-09-26 07:32:47 51°16.65 2°53.47 17.407371 4.275864 32.627052 2.488563
2003-09-26 07:32:51 51°16.66 2°53.45 17.405985 4.277973 32.643276 2.488563
2003-09-26 07:32:55 51°16.67 2°53.43 17.405985 4.277973 32.643276 2.488563
2003-09-26 07:33:01 51°16.68 2°53.41 17.407077 4.279133 32.651408 2.522272
2003-09-26 07:33:07 51°16.7 2°53.38 17.443271 4.280505 32.665441 2.488563
2003-09-26 07:33:11 51°16.71 2°53.36 17.408421 4.280083 32.658327 2.488563
2003-09-26 07:33:17 51°16.72 2°53.33 17.408799 4.281243 32.669976 2.522272
2003-09-26 07:33:21 51°16.73 2°53.31 17.444405 4.280399 32.66337 2.522272
2003-09-26 07:33:27 51°16.74 2°53.29 17.444405 4.280399 32.66337 2.522272
2003-09-26 07:33:31 51°16.75 2°53.27 17.413503 4.281454 32.670016 2.522272
2003-09-26 07:33:35 51°16.76 2°53.25 17.415981 4.282192 32.679242 2.555982
2003-09-26 07:33:41 51°16.78 2°53.22 17.45196 4.282614 32.682839 2.589691
2003-09-26 07:33:47 51°16.79 2°53.19 17.453345 4.281348 32.667358 2.6234
2003-09-26 07:33:51 51°16.8 2°53.18 17.4206 4.28061 32.664582 2.589691
2003-09-26 07:33:57 51°16.81 2°53.15 17.4206 4.28061 32.664582 2.589691
2003-09-26 07:34:01 51°16.82 2°53.13 17.421146 4.283458 32.688859 2.65711
2003-09-26 07:34:05 51°16.83 2°53.11 17.422112 4.280504 32.659579 2.65711
2003-09-26 07:34:11 51°16.85 2°53.09 17.424001 4.279766 32.650942 2.758238
2003-09-26 07:34:15 51°16.85 2°53.07 17.4935 4.280821 32.658174 2.859366
2003-09-26 07:34:21 51°16.87 2°53.04 17.425849 4.282297 32.671345 2.825657
2003-09-26 07:34:27 51°16.88 2°53.02 17.425849 4.282297 32.671345 2.825657
2003-09-26 07:34:31 51°16.89 2°53 17.428242 4.280399 32.653992 2.859366
2003-09-26 07:34:35 51°16.9 2°52.98 17.428452 4.278395 32.635158 2.791947
2003-09-26 07:34:41 51°16.91 2°52.96 17.429879 4.280715 32.654345 2.859366
2003-09-26 07:34:47 51°16.93 2°52.93 17.429963 4.279871 32.645984 2.859366
2003-09-26 07:34:51 51°16.94 2°52.92 17.430719 4.279661 32.645357 2.893076
2003-09-26 07:34:55 51°16.95 2°52.9 17.430719 4.279661 32.645357 2.893076
2003-09-26 07:35:01 51°16.96 2°52.88 17.431937 4.280293 32.649579 2.825657
2003-09-26 07:35:07 51°16.97 2°52.85 17.433532 4.281664 32.656576 2.926785
2003-09-26 07:35:11 51°16.98 2°52.84 17.435883 4.281664 32.656576 2.893076
2003-09-26 07:35:17 51°17 2°52.81 17.473153 4.28177 32.658646 2.926785
2003-09-26 07:35:21 51°17.01 2°52.79 17.440669 4.281664 32.65599 2.859366
2003-09-26 07:35:27 51°17.02 2°52.77 17.440669 4.281664 32.65599 2.859366
2003-09-26 07:35:31 51°17.03 2°52.75 17.441173 4.281137 32.650326 2.994204
2003-09-26 07:35:35 51°17.04 2°52.73 17.442894 4.283035 32.664158 2.825657
2003-09-26 07:35:41 51°17.05 2°52.7 17.444153 4.28293 32.662674 2.859366
2003-09-26 07:35:45 51°17.06 2°52.68 17.443733 4.28409 32.670215 2.859366
2003-09-26 07:35:51 51°17.08 2°52.65 17.444111 4.283352 32.663339 2.859366
2003-09-26 07:35:55 51°17.09 2°52.63 17.444111 4.283352 32.663339 2.859366
2003-09-26 07:36:01 51°17.1 2°52.6 17.444825 4.284196 32.6717 2.825657
2003-09-26 07:36:07 51°17.11 2°52.58 17.446042 4.284407 32.672911 2.825657
2003-09-26 07:36:11 51°17.12 2°52.56 17.447175 4.284934 32.674474 2.893076
2003-09-26 07:36:17 51°17.14 2°52.53 17.448644 4.285778 32.679905 2.926785
2003-09-26 07:36:21 51°17.14 2°52.52 17.484313 4.285145 32.675099 2.859366
2003-09-26 07:36:27 51°17.16 2°52.49 17.484313 4.285145 32.675099 2.859366
2003-09-26 07:36:31 51°17.17 2°52.47 17.48574 4.286199 32.683499 2.926785
2003-09-26 07:36:37 51°17.18 2°52.44 17.453345 4.285778 32.679905 2.825657
2003-09-26 07:36:41 51°17.19 2°52.43 17.455738 4.287254 32.690726 2.859366
2003-09-26 07:36:47 51°17.21 2°52.4 17.457332 4.288203 32.696468 2.791947
2003-09-26 07:36:51 51°17.22 2°52.39 17.459263 4.288203 32.695295 2.791947
2003-09-26 07:36:55 51°17.23 2°52.37 17.459263 4.288203 32.695295 2.791947
2003-09-26 07:37:01 51°17.24 2°52.35 17.461068 4.288942 32.70393 2.724529
2003-09-26 07:37:07 51°17.26 2°52.32 17.462117 4.288942 32.702757 2.859366
2003-09-26 07:37:11 51°17.27 2°52.31 17.463544 4.290735 32.713927 2.791947
2003-09-26 07:37:17 51°17.29 2°52.29 17.465264 4.292528 32.728615 2.791947
2003-09-26 07:37:21 51°17.3 2°52.27 17.467278 4.293055 32.731347 2.791947
2003-09-26 07:37:27 51°17.32 2°52.25 17.467278 4.293055 32.731347 2.791947
2003-09-26 07:37:31 51°17.33 2°52.23 17.505077 4.293582 32.732906 2.791947
2003-09-26 07:37:35 51°17.34 2°52.22 17.509313 4.292949 32.728102 2.724529
2003-09-26 07:37:41 51°17.35 2°52.19 17.513171 4.294742 32.740442 2.690819
2003-09-26 07:37:47 51°17.37 2°52.17 17.482593 4.293582 32.733493 2.690819
2003-09-26 07:37:51 51°17.38 2°52.15 17.486495 4.296219 32.752433 2.724529
2003-09-26 07:37:57 51°17.4 2°52.13 17.486495 4.296219 32.752433 2.724529
2003-09-26 07:38:01 51°17.41 2°52.11 17.491109 4.298539 32.76985 2.724529
2003-09-26 07:38:07 51°17.42 2°52.09 17.494968 4.299383 32.774102 2.65711
2003-09-26 07:38:11 51°17.43 2°52.07 17.498366 4.300543 32.783984 2.65711
2003-09-26 07:38:17 51°17.45 2°52.05 17.535015 4.302336 32.795733 2.6234
2003-09-26 07:38:21 51°17.46 2°52.04 17.502015 4.195284 31.655866 2.6234
2003-09-26 07:38:27 51°17.48 2°52.01 17.502015 4.195284 31.655866 2.6234
2003-09-26 07:38:31 51°17.49 2°52 17.503902 4.304024 32.804231 2.6234
2003-09-26 07:38:35 51°17.5 2°51.98 17.505832 4.306766 32.824648 2.65711
2003-09-26 07:38:41 51°17.52 2°51.96 17.508683 4.308032 32.830137 2.6234
2003-09-26 07:38:45 51°17.53 2°51.94 17.512332 4.308453 32.828439 2.589691
2003-09-26 07:38:51 51°17.54 2°51.92 17.515854 4.310247 32.847235 2.589691
2003-09-26 07:38:55 51°17.55 2°51.9 17.515854 4.310247 32.847235 2.589691
2003-09-26 07:39:01 51°17.57 2°51.88 17.517951 4.31109 32.852657 2.555982
2003-09-26 07:39:07 51°17.58 2°51.86 17.519922 4.310774 32.847022 2.589691
2003-09-26 07:39:11 51°17.6 2°51.84 17.554464 4.312356 32.860494 2.589691
2003-09-26 07:39:15 51°17.61 2°51.83 17.520551 4.312567 32.858173 2.589691
2003-09-26 07:39:21 51°17.62 2°51.8 17.519628 4.314571 32.872883 2.589691
2003-09-26 07:39:25 51°17.63 2°51.79 17.519628 4.314571 32.872883 2.589691
2003-09-26 07:39:31 51°17.65 2°51.76 17.519377 4.314887 32.871459 2.555982
2003-09-26 07:39:37 51°17.66 2°51.74 17.519335 4.315942 32.879263 2.522272
2003-09-26 07:39:41 51°17.67 2°51.73 17.555512 4.31668 32.880253 2.522272
2003-09-26 07:39:47 51°17.69 2°51.7 17.558236 4.316891 32.886756 2.488563
2003-09-26 07:39:51 51°17.7 2°51.69 17.528224 4.318262 32.894899 2.454853
2003-09-26 07:39:55 51°17.71 2°51.67 17.528224 4.318262 32.894899 2.454853
2003-09-26 07:40:01 51°17.73 2°51.65 17.533925 4.318473 32.897283 2.454853
2003-09-26 07:40:07 51°17.74 2°51.62 17.540549 4.318684 32.898491 2.421144
2003-09-26 07:40:11 51°17.75 2°51.61 17.547381 4.318262 32.89843 2.421144
2003-09-26 07:40:15 51°17.77 2°51.59 17.554087 4.319001 32.900596 2.421144
2003-09-26 07:40:21 51°17.78 2°51.57 17.594644 4.317418 32.883008 2.454853
2003-09-26 07:40:27 51°17.8 2°51.55 17.594644 4.317418 32.883008 2.454853
2003-09-26 07:40:31 51°17.81 2°51.53 17.598833 4.317946 32.888086 2.454853
2003-09-26 07:40:35 51°17.82 2°51.52 17.568461 4.318895 32.890871 2.522272
2003-09-26 07:40:41 51°17.84 2°51.5 17.570807 4.319528 32.892139 2.555982
2003-09-26 07:40:47 51°17.85 2°51.47 17.605618 4.319317 32.884463 2.65711
2003-09-26 07:40:51 51°17.87 2°51.46 17.572902 4.319211 32.878275 2.690819
2003-09-26 07:40:57 51°17.88 2°51.44 17.572902 4.319211 32.878275 2.690819
2003-09-26 07:41:01 51°17.9 2°51.43 17.572944 4.32111 32.890311 2.724529
2003-09-26 07:41:07 51°17.91 2°51.4 17.574369 4.32111 32.889136 2.724529
2003-09-26 07:41:11 51°17.92 2°51.39 17.577679 4.320688 32.881433 2.724529
2003-09-26 07:41:17 51°17.94 2°51.37 17.580611 4.323325 32.90151 2.825657
2003-09-26 07:41:21 51°17.95 2°51.35 17.583502 4.32227 32.890775 2.825657
2003-09-26 07:41:27 51°17.97 2°51.33 17.583502 4.32227 32.890775 2.825657
2003-09-26 07:41:31 51°17.98 2°51.32 17.586853 4.321531 32.880971 2.960494
2003-09-26 07:41:37 51°18 2°51.3 17.590749 4.321109 32.880321 2.926785
2003-09-26 07:41:41 51°18.01 2°51.29 17.62961 4.321531 32.881559 2.994204
2003-09-26 07:41:47 51°18.03 2°51.27 17.600006 4.321637 32.879519 3.027913
2003-09-26 07:41:51 51°18.04 2°51.25 17.603901 4.321531 32.875098 2.994204
2003-09-26 07:41:55 51°18.05 2°51.24 17.603901 4.321531 32.875098 2.994204
2003-09-26 07:42:01 51°18.07 2°51.22 17.607544 4.320898 32.867956 3.027913
2003-09-26 07:42:07 51°18.09 2°51.2 17.612653 4.320793 32.866473 3.129042
2003-09-26 07:42:11 51°18.1 2°51.19 17.653134 4.318367 32.841745 3.027913
2003-09-26 07:42:15 51°18.11 2°51.17 17.622409 4.319105 32.846261 3.129042
2003-09-26 07:42:21 51°18.13 2°51.15 17.658574 4.32132 32.860392 3.129042
2003-09-26 07:42:27 51°18.15 2°51.13 17.658574 4.32132 32.860392 3.129042
2003-09-26 07:42:31 51°18.16 2°51.12 17.624293 4.317206 32.819577 3.23017
2003-09-26 07:42:35 51°18.17 2°51.11 17.621069 4.317206 32.821335 3.23017
2003-09-26 07:42:41 51°18.19 2°51.09 17.617552 4.317523 32.816994 3.365007
2003-09-26 07:42:47 51°18.21 2°51.07 17.612862 4.317734 32.815858 3.365007
2003-09-26 07:42:51 51°18.22 2°51.06 17.643005 4.317206 32.808452 3.398717
2003-09-26 07:42:55 51°18.23 2°51.05 17.643005 4.317206 32.808452 3.398717
2003-09-26 07:43:01 51°18.25 2°51.04 17.603942 4.316573 32.800151 3.398717
2003-09-26 07:43:07 51°18.26 2°51.03 17.601807 4.315413 32.790299 3.398717
2003-09-26 07:43:11 51°18.27 2°51.02 17.600759 4.314253 32.781032 3.297589
2003-09-26 07:43:15 51°18.28 2°51.01 17.633587 4.313304 32.774726 3.263879
2003-09-26 07:43:21 51°18.3 2°51 17.598456 4.313304 32.777065 3.129042
2003-09-26 07:43:27 51°18.31 2°50.99 17.598456 4.313304 32.777065 3.129042
2003-09-26 07:43:31 51°18.32 2°50.98 17.597911 4.312354 32.770759 3.061623
2003-09-26 07:43:35 51°18.33 2°50.98 17.598372 4.3113 32.765895 2.994204
2003-09-26 07:43:41 51°18.34 2°50.97 17.600131 4.311194 32.766753 2.859366
2003-09-26 07:43:47 51°18.36 2°50.96 17.635931 4.311194 32.767923 2.859366
2003-09-26 07:43:51 51°18.37 2°50.96 17.603147 4.310772 32.766094 2.758238
2003-09-26 07:43:55 51°18.37 2°50.96 17.603147 4.310772 32.766094 2.758238
2003-09-26 07:44:01 51°18.38 2°50.95 17.604068 4.311089 32.768782 2.724529
2003-09-26 07:44:07 51°18.39 2°50.95 17.604194 4.310456 32.763991 2.690819
2003-09-26 07:44:11 51°18.4 2°50.95 17.605241 4.311194 32.769677 2.724529
2003-09-26 07:44:15 51°18.41 2°50.95 17.605241 4.311089 32.768782 2.65711
2003-09-26 07:44:21 51°18.42 2°50.94 17.606539 4.31014 32.760719 2.65711
2003-09-26 07:44:27 51°18.42 2°50.94 17.606539 4.31014 32.760719 2.65711
2003-09-26 07:44:31 51°18.43 2°50.94 17.640159 4.311405 32.76913 2.65711
2003-09-26 07:44:35 51°18.43 2°50.94 17.604277 4.312038 32.773335 2.65711
2003-09-26 07:44:41 51°18.44 2°50.94 17.602728 4.311722 32.771817 2.65711
2003-09-26 07:44:47 51°18.45 2°50.95 17.600466 4.311511 32.768271 2.690819
2003-09-26 07:44:51 51°18.45 2°50.95 17.59921 4.311933 32.771854 2.6234
2003-09-26 07:44:55 51°18.45 2°50.95 17.59921 4.311933 32.771854 2.6234
2003-09-26 07:45:01 51°18.46 2°50.95 17.63388 4.311616 32.768582 2.6234
2003-09-26 07:45:05 51°18.46 2°50.96 17.635094 4.313093 32.782878 2.555982
2003-09-26 07:45:11 51°18.46 2°50.96 17.601723 4.311933 32.772439 2.555982
2003-09-26 07:45:17 51°18.47 2°50.96 17.63522 4.312249 32.776296 2.522272
2003-09-26 07:45:21 51°18.47 2°50.97 17.63522 4.311827 32.773298 2.522272
2003-09-26 07:45:27 51°18.47 2°50.97 17.63522 4.311827 32.773298 2.522272
2003-09-26 07:45:31 51°18.47 2°50.98 17.60122 4.311405 32.770299 2.488563
2003-09-26 07:45:35 51°18.48 2°50.98 17.635178 4.305921 32.723136 2.522272
2003-09-26 07:45:41 51°18.48 2°50.99 17.599838 4.312882 32.781672 2.555982
2003-09-26 07:45:47 51°18.48 2°50.99 17.634382 4.306659 32.732911 2.488563
2003-09-26 07:45:51 51°18.48 2°50.99 17.601011 4.307292 32.734779 2.522272
2003-09-26 07:45:55 51°18.48 2°51 17.601011 4.307292 32.734779 2.522272
2003-09-26 07:46:01 51°18.49 2°51 17.599335 4.311722 32.771817 2.488563
2003-09-26 07:46:07 51°18.49 2°51.01 17.633671 4.311511 32.771195 2.454853
2003-09-26 07:46:11 51°18.49 2°51.01 17.599712 4.311194 32.769093 2.454853
2003-09-26 07:46:17 51°18.49 2°51.01 17.600634 4.310772 32.766679 2.488563
2003-09-26 07:46:21 51°18.49 2°51.01 17.6021 4.311722 32.772987 2.454853
2003-09-26 07:46:27 51°18.49 2°51.01 17.6021 4.311722 32.772987 2.454853
2003-09-26 07:46:31 51°18.49 2°51.01 17.601723 4.310245 32.76103 2.454853
2003-09-26 07:46:35 51°18.49 2°51.01 17.602267 4.310772 32.766094 2.454853
2003-09-26 07:46:41 51°18.49 2°51.01 17.6021 4.310456 32.763991 2.488563
2003-09-26 07:46:47 51°18.49 2°51.01 17.63635 4.310456 32.763406 2.488563
2003-09-26 07:46:51 51°18.49 2°51.01 17.602267 4.311511 32.77178 2.488563
2003-09-26 07:46:55 51°18.49 2°51.01 17.602267 4.311511 32.77178 2.488563
2003-09-26 07:47:01 51°18.49 2°51.01 17.60256 4.310983 32.763792 2.454853
2003-09-26 07:47:07 51°18.49 2°51.01 17.602058 4.311511 32.77178 2.488563
2003-09-26 07:47:11 51°18.49 2°51.01 17.636224 4.310561 32.763133 2.488563
2003-09-26 07:47:17 51°18.49 2°51 17.601681 4.310878 32.766405 2.488563
2003-09-26 07:47:21 51°18.49 2°51 17.600927 4.30919 32.752656 2.522272
2003-09-26 07:47:27 51°18.49 2°51 17.600927 4.30919 32.752656 2.522272
2003-09-26 07:47:31 51°18.49 2°51 17.601807 4.310878 32.766405 2.488563
2003-09-26 07:47:37 51°18.49 2°51 17.601346 4.310878 32.767575 2.522272
2003-09-26 07:47:41 51°18.49 2°51 17.601011 4.3113 32.766479 2.488563
2003-09-26 07:47:47 51°18.49 2°51 17.601053 4.3113 32.769404 2.488563
2003-09-26 07:47:51 51°18.49 2°50.99 17.703503 4.310561 32.761963 2.488563
2003-09-26 07:47:57 51°18.49 2°50.99 17.703503 4.310561 32.761963 2.488563
2003-09-26 07:48:01 51°18.49 2°50.99 17.600843 4.310983 32.765546 2.488563
2003-09-26 07:48:07 51°18.49 2°50.99 17.601262 4.310772 32.763755 2.454853
2003-09-26 07:48:11 51°18.49 2°50.99 17.601765 4.310034 32.759238 2.488563
2003-09-26 07:48:17 51°18.49 2°50.99 17.602351 4.310351 32.761926 2.454853
2003-09-26 07:48:21 51°18.49 2°50.98 17.601304 4.310351 32.761926 2.488563
2003-09-26 07:48:27 51°18.48 2°50.98 17.601304 4.310351 32.761926 2.488563
2003-09-26 07:48:31 51°18.48 2°50.98 17.634717 4.311616 32.772091 2.454853
2003-09-26 07:48:37 51°18.48 2°50.98 17.599335 4.310351 32.761341 2.454853
2003-09-26 07:48:41 51°18.48 2°50.98 17.633838 4.310456 32.759313 2.488563
2003-09-26 07:48:47 51°18.48 2°50.98 17.599629 4.310772 32.763755 2.454853
2003-09-26 07:48:51 51°18.48 2°50.98 17.600173 4.310772 32.763755 2.488563
2003-09-26 07:48:55 51°18.48 2°50.97 17.600173 4.310772 32.763755 2.488563
2003-09-26 07:49:01 51°18.48 2°50.97 17.599587 4.309296 32.751214 2.454853
2003-09-26 07:49:07 51°18.48 2°50.97 17.598833 4.310667 32.762274 2.454853
2003-09-26 07:49:11 51°18.48 2°50.97 17.599 4.31014 32.757795 2.488563
2003-09-26 07:49:17 51°18.48 2°50.97 17.598959 4.310245 32.760445 2.454853
2003-09-26 07:49:21 51°18.48 2°50.96 17.598582 4.309823 32.753939 2.488563
2003-09-26 07:49:27 51°18.48 2°50.96 17.598582 4.309823 32.753939 2.488563
2003-09-26 07:49:31 51°18.48 2°50.96 17.633336 4.309507 32.754759 2.454853
2003-09-26 07:49:35 51°18.48 2°50.96 17.634173 4.309929 32.757758 2.454853
2003-09-26 07:49:41 51°18.47 2°50.96 17.600801 4.309612 32.757409 2.454853
2003-09-26 07:49:47 51°18.47 2°50.96 17.600257 4.310351 32.761341 2.454853
2003-09-26 07:49:51 51°18.47 2°50.95 17.600341 4.310562 32.765472 2.454853
2003-09-26 07:49:55 51°18.47 2°50.95 17.600341 4.310562 32.765472 2.454853
2003-09-26 07:50:01 51°18.47 2°50.95 17.601011 4.310034 32.758654 2.454853
2003-09-26 07:50:07 51°18.47 2°50.95 17.601723 4.308979 32.750865 2.488563
2003-09-26 07:50:11 51°18.47 2°50.95 17.602183 4.31014 32.761304 2.488563
2003-09-26 07:50:15 51°18.47 2°50.95 17.602435 4.310245 32.758106 2.454853
2003-09-26 07:50:21 51°18.47 2°50.94 17.637396 4.310456 32.762237 2.488563
2003-09-26 07:50:27 51°18.47 2°50.94 17.637396 4.310456 32.762237 2.488563
2003-09-26 07:50:31 51°18.46 2°50.94 17.601765 4.309401 32.753279 2.454853
2003-09-26 07:50:35 51°18.46 2°50.94 17.600969 4.309823 32.756277 2.488563
2003-09-26 07:50:41 51°18.46 2°50.94 17.63455 4.310561 32.760794 2.522272
2003-09-26 07:50:47 51°18.46 2°50.94 17.600383 4.309296 32.751214 2.488563
2003-09-26 07:50:51 51°18.46 2°50.93 17.599712 4.310561 32.760209 2.488563
2003-09-26 07:50:55 51°18.46 2°50.93 17.599712 4.310561 32.760209 2.488563
2003-09-26 07:51:01 51°18.46 2°50.93 17.599922 4.309401 32.754448 2.488563
2003-09-26 07:51:07 51°18.46 2°50.93 17.59921 4.311194 32.767923 2.488563
2003-09-26 07:51:11 51°18.46 2°50.93 17.599252 4.310667 32.762274 2.488563
2003-09-26 07:51:17 51°18.46 2°50.93 17.600466 4.310245 32.759276 2.488563
2003-09-26 07:51:21 51°18.46 2°50.93 17.60122 4.309401 32.755033 2.454853
2003-09-26 07:51:27 51°18.47 2°50.93 17.60122 4.309401 32.755033 2.454853
2003-09-26 07:51:31 51°18.47 2°50.93 17.601471 4.310667 32.762859 2.454853
2003-09-26 07:51:35 51°18.47 2°50.93 17.598456 4.310245 32.762199 2.454853
2003-09-26 07:51:41 51°18.48 2°50.93 17.596194 4.310667 32.764613 2.488563
2003-09-26 07:51:47 51°18.49 2°50.94 17.632289 4.309718 32.755966 2.454853
2003-09-26 07:51:51 51°18.5 2°50.94 17.633964 4.303389 32.703392 2.454853
2003-09-26 07:51:55 51°18.5 2°50.94 17.633964 4.303389 32.703392 2.454853
2003-09-26 07:52:01 51°18.51 2°50.95 17.60055 4.304444 32.712932 2.454853
2003-09-26 07:52:07 51°18.52 2°50.96 17.600843 4.304233 32.711141 2.421144
2003-09-26 07:52:11 51°18.53 2°50.97 17.600383 4.303284 32.703664 2.421144
2003-09-26 07:52:15 51°18.54 2°50.98 17.600759 4.30476 32.714452 2.454853
2003-09-26 07:52:21 51°18.55 2°50.99 17.599294 4.302651 32.69829 2.454853
2003-09-26 07:52:27 51°18.56 2°51.01 17.599294 4.302651 32.69829 2.454853
2003-09-26 07:52:31 51°18.57 2°51.02 17.597911 4.304022 32.708182 2.488563
2003-09-26 07:52:35 51°18.58 2°51.03 17.597409 4.309823 32.756277 2.488563
2003-09-26 07:52:41 51°18.59 2°51.05 17.596194 4.308136 32.743698 2.488563
2003-09-26 07:52:47 51°18.61 2°51.06 17.630196 4.310561 32.760794 2.522272
2003-09-26 07:52:51 51°18.62 2°51.08 17.595692 4.307925 32.740154 2.488563
2003-09-26 07:52:57 51°18.63 2°51.09 17.595692 4.307925 32.740154 2.488563
2003-09-26 07:53:01 51°18.64 2°51.11 17.59544 4.307819 32.74218 2.522272
2003-09-26 07:53:07 51°18.66 2°51.13 17.595398 4.308452 32.744048 2.522272
2003-09-26 07:53:11 51°18.66 2°51.14 17.595315 4.307714 32.738947 2.488563
2003-09-26 07:53:15 51°18.67 2°51.16 17.594728 4.306975 32.735014 2.555982
2003-09-26 07:53:21 51°18.68 2°51.18 17.594561 4.306343 32.73256 2.522272
2003-09-26 07:53:27 51°18.69 2°51.21 17.594561 4.306343 32.73256 2.522272
2003-09-26 07:53:31 51°18.7 2°51.23 17.628857 4.306659 32.732911 2.522272
2003-09-26 07:53:37 51°18.71 2°51.25 17.595147 4.305499 32.723641 2.522272
2003-09-26 07:53:41 51°18.71 2°51.27 17.629485 4.306132 32.726679 2.522272
2003-09-26 07:53:47 51°18.72 2°51.3 17.595692 4.305815 32.72224 2.555982
2003-09-26 07:53:51 51°18.73 2°51.32 17.631033 4.305077 32.717138 2.522272
2003-09-26 07:53:57 51°18.74 2°51.35 17.631033 4.305077 32.717138 2.522272
2003-09-26 07:54:01 51°18.74 2°51.37 17.595524 4.304339 32.711453 2.555982
2003-09-26 07:54:07 51°18.75 2°51.39 17.593514 4.305288 32.71893 2.555982
2003-09-26 07:54:11 51°18.76 2°51.41 17.59389 4.304971 32.715659 2.6234
2003-09-26 07:54:15 51°18.76 2°51.43 17.592843 4.30476 32.715035 2.589691
2003-09-26 07:54:21 51°18.77 2°51.46 17.591964 4.303917 32.710206 2.6234
2003-09-26 07:54:27 51°18.78 2°51.49 17.591964 4.303917 32.710206 2.6234
2003-09-26 07:54:31 51°18.79 2°51.51 17.625256 4.304866 32.717099 2.589691
2003-09-26 07:54:35 51°18.79 2°51.52 17.588487 4.303811 32.708726 2.555982
2003-09-26 07:54:41 51°18.8 2°51.55 17.58811 4.302862 32.700665 2.555982
2003-09-26 07:54:47 51°18.81 2°51.58 17.58723 4.303811 32.708142 2.555982
2003-09-26 07:54:51 51°18.82 2°51.6 17.585136 4.302967 32.702728 2.555982
2003-09-26 07:54:55 51°18.82 2°51.62 17.585136 4.302967 32.702728 2.555982
2003-09-26 07:55:01 51°18.83 2°51.64 17.584256 4.302545 32.696811 2.555982
2003-09-26 07:55:07 51°18.84 2°51.67 17.582455 4.302546 32.700313 2.589691
2003-09-26 07:55:11 51°18.85 2°51.69 17.582915 4.301069 32.690108 2.6234
2003-09-26 07:55:17 51°18.86 2°51.72 17.580946 4.302967 32.70448 2.555982
2003-09-26 07:55:21 51°18.87 2°51.74 17.577804 4.303495 32.709542 2.65711
2003-09-26 07:55:27 51°18.88 2°51.76 17.577804 4.303495 32.709542 2.65711
2003-09-26 07:55:31 51°18.88 2°51.78 17.576464 4.30128 32.69365 2.65711
2003-09-26 07:55:35 51°18.89 2°51.8 17.608717 4.300753 32.690923 2.65711
2003-09-26 07:55:41 51°18.9 2°51.83 17.571687 4.30012 32.68263 2.65711
2003-09-26 07:55:47 51°18.91 2°51.86 17.602895 4.300014 32.683485 2.690819
2003-09-26 07:55:51 51°18.91 2°51.87 17.56645 4.300858 32.692402 2.6234
2003-09-26 07:55:55 51°18.92 2°51.89 17.56645 4.300858 32.692402 2.6234
2003-09-26 07:56:01 51°18.93 2°51.92 17.565486 4.299276 32.680716 2.724529
2003-09-26 07:56:07 51°18.94 2°51.95 17.599042 4.298116 32.671446 2.690819
2003-09-26 07:56:11 51°18.95 2°51.97 17.56293 4.298221 32.675842 2.690819
2003-09-26 07:56:15 51°18.95 2°51.99 17.56272 4.296007 32.661696 2.724529
2003-09-26 07:56:21 51°18.96 2°52.01 17.595985 4.297378 32.670426 2.724529
2003-09-26 07:56:27 51°18.97 2°52.04 17.595985 4.297378 32.670426 2.724529
2003-09-26 07:56:31 51°18.98 2°52.06 17.559661 4.296217 32.664071 2.65711
2003-09-26 07:56:35 51°18.99 2°52.08 17.558362 4.2978 32.678678 2.65711
2003-09-26 07:56:41 51°19 2°52.1 17.556644 4.295374 32.662154 2.690819
2003-09-26 07:56:47 51°19.01 2°52.13 17.555093 4.295163 32.660946 2.724529
2003-09-26 07:56:51 51°19.01 2°52.15 17.580905 4.296007 32.668698 2.758238
2003-09-26 07:56:55 51°19.02 2°52.17 17.580905 4.296007 32.668698 2.758238
2003-09-26 07:57:01 51°19.03 2°52.19 17.536315 4.292421 32.644648 2.758238
2003-09-26 07:57:07 51°19.04 2°52.22 17.52835 4.29453 32.656736 2.791947
2003-09-26 07:57:11 51°19.05 2°52.24 17.519377 4.294003 32.654006 2.758238
2003-09-26 07:57:15 51°19.05 2°52.26 17.584088 4.293792 32.653964 2.758238
2003-09-26 07:57:21 51°19.06 2°52.29 17.548513 4.29337 32.649796 2.758238
2003-09-26 07:57:27 51°19.07 2°52.31 17.548513 4.29337 32.649796 2.758238
2003-09-26 07:57:31 51°19.08 2°52.33 17.512164 4.292737 32.654339 2.825657
2003-09-26 07:57:37 51°19.09 2°52.36 17.51229 4.289995 32.633951 2.791947
2003-09-26 07:57:41 51°19.1 2°52.38 17.511955 4.288518 32.627234 2.690819
2003-09-26 07:57:47 51°19.11 2°52.4 17.512416 4.288202 32.630963 2.724529
2003-09-26 07:57:51 51°19.11 2°52.42 17.513506 4.287359 32.630209 2.758238
2003-09-26 07:57:55 51°19.12 2°52.44 17.513506 4.287359 32.630209 2.758238
2003-09-26 07:58:01 51°19.13 2°52.47 17.548052 4.258671 32.385841 2.791947
2003-09-26 07:58:07 51°19.14 2°52.5 17.548429 4.286409 32.623305 2.791947
2003-09-26 07:58:11 51°19.14 2°52.51 17.548052 4.285566 32.617881 2.758238
2003-09-26 07:58:15 51°19.15 2°52.53 17.513255 4.286515 32.626537 2.825657
2003-09-26 07:58:21 51°19.15 2°52.56 17.511703 4.285777 32.619675 2.825657
2003-09-26 07:58:27 51°19.16 2°52.59 17.511703 4.285777 32.619675 2.825657
2003-09-26 07:58:31 51°19.17 2°52.61 17.511661 4.285038 32.617482 2.859366
2003-09-26 07:58:37 51°19.17 2°52.64 17.542058 4.284827 32.611604 2.825657
2003-09-26 07:58:41 51°19.18 2°52.66 17.540633 4.285144 32.612544 2.825657
2003-09-26 07:58:47 51°19.18 2°52.69 17.571687 4.28662 32.626266 2.825657
2003-09-26 07:58:51 51°19.19 2°52.71 17.498869 4.286093 32.622949 2.825657
2003-09-26 07:58:57 51°19.19 2°52.74 17.498869 4.286093 32.622949 2.825657
2003-09-26 07:59:01 51°19.2 2°52.76 17.495807 4.284827 32.613938 2.859366
2003-09-26 07:59:07 51°19.2 2°52.79 17.490942 4.283667 32.603489 2.724529
2003-09-26 07:59:11 51°19.21 2°52.81 17.489012 4.279132 32.567844 2.724529
2003-09-26 07:59:15 51°19.21 2°52.83 17.485572 4.282929 32.603045 2.589691
2003-09-26 07:59:21 51°19.22 2°52.85 17.483264 4.280187 32.579143 2.589691
2003-09-26 07:59:27 51°19.23 2°52.88 17.483264 4.280187 32.579143 2.589691
2003-09-26 07:59:31 51°19.23 2°52.9 17.51468 4.277023 32.555153 2.488563
2003-09-26 07:59:35 51°19.24 2°52.92 17.515854 4.278921 32.576543 2.522272
2003-09-26 07:59:41 51°19.24 2°52.95 17.516987 4.278394 32.570309 2.488563
2003-09-26 07:59:47 51°19.25 2°52.98 17.517993 4.276495 32.559409 2.454853
2003-09-26 07:59:51 51°19.26 2°53 17.484145 4.274808 32.546805 2.454853
2003-09-26 07:59:55 51°19.26 2°53.02 17.484145 4.274808 32.546805 2.454853
2003-09-26 08:00:01 51°19.27 2°53.05 17.484355 4.274175 32.542589 2.454853
2003-09-26 08:00:07 51°19.27 2°53.08 17.484523 4.271327 32.520117 2.454853
2003-09-26 08:00:11 51°19.28 2°53.1 17.483558 4.27291 32.534155 2.454853
2003-09-26 08:00:15 51°19.28 2°53.12 17.481167 4.273859 32.542811 2.488563
2003-09-26 08:00:21 51°19.29 2°53.15 17.481544 4.272593 32.527969 2.488563
2003-09-26 08:00:27 51°19.29 2°53.18 17.481544 4.272593 32.527969 2.488563
2003-09-26 08:00:31 51°19.3 2°53.2 17.480118 4.271749 32.522541 2.488563
2003-09-26 08:00:35 51°19.3 2°53.22 17.515938 4.270484 32.50945 2.488563
2003-09-26 08:00:41 51°19.31 2°53.25 17.587482 4.271327 32.519535 2.488563
2003-09-26 08:00:47 51°19.32 2°53.27 17.488341 4.271117 32.518906 2.488563
2003-09-26 08:00:51 51°19.32 2°53.29 17.4922 4.269218 32.507417 2.522272
2003-09-26 08:00:55 51°19.33 2°53.31 17.4922 4.269218 32.507417 2.522272
2003-09-26 08:01:01 51°19.33 2°53.34 17.493039 4.270484 32.516435 2.555982
2003-09-26 08:01:07 51°19.34 2°53.37 17.492913 4.268691 32.501768 2.555982
2003-09-26 08:01:11 51°19.35 2°53.39 17.492745 4.26848 32.498228 2.555982
2003-09-26 08:01:15 51°19.35 2°53.41 17.563474 4.269429 32.505137 2.65711
2003-09-26 08:01:21 51°19.36 2°53.44 17.5312 4.268585 32.495053 2.690819
2003-09-26 08:01:27 51°19.36 2°53.47 17.5312 4.268585 32.495053 2.690819
2003-09-26 08:01:31 51°19.37 2°53.49 17.498198 4.271116 32.511921 2.65711
2003-09-26 08:01:35 51°19.38 2°53.51 17.534932 4.268902 32.495998 2.758238
2003-09-26 08:01:41 51°19.38 2°53.54 17.535644 4.269007 32.494568 2.758238
2003-09-26 08:01:47 51°19.39 2°53.57 17.502896 4.267636 32.483492 2.791947
2003-09-26 08:01:51 51°19.39 2°53.59 17.504951 4.266898 32.474309 2.893076
2003-09-26 08:01:57 51°19.4 2°53.61 17.504951 4.266898 32.474309 2.893076
2003-09-26 08:02:01 51°19.41 2°53.63 17.506377 4.268269 32.484802 2.926785
2003-09-26 08:02:07 51°19.41 2°53.66 17.507174 4.266898 32.473728 3.027913
2003-09-26 08:02:11 51°19.42 2°53.68 17.508725 4.267425 32.477629 2.994204
2003-09-26 08:02:17 51°19.42 2°53.71 17.544154 4.265632 32.46297 3.027913
2003-09-26 08:02:21 51°19.43 2°53.73 17.510864 4.267003 32.469975 3.095332
2003-09-26 08:02:27 51°19.44 2°53.76 17.510864 4.267003 32.469975 3.095332
2003-09-26 08:02:31 51°19.44 2°53.78 17.512374 4.267003 32.469975 3.129042
2003-09-26 08:02:37 51°19.45 2°53.81 17.583125 4.268374 32.478723 3.095332
2003-09-26 08:02:41 51°19.45 2°53.83 17.551279 4.267108 32.469129 3.027913
2003-09-26 08:02:47 51°19.46 2°53.86 17.518496 4.267319 32.468598 3.027913
2003-09-26 08:02:51 51°19.46 2°53.88 17.519503 4.266792 32.462954 2.926785
2003-09-26 08:02:57 51°19.47 2°53.91 17.519503 4.266792 32.462954 2.926785
2003-09-26 08:03:01 51°19.47 2°53.93 17.521431 4.266476 32.459104 2.926785
2003-09-26 08:03:07 51°19.48 2°53.96 17.522144 4.266581 32.455355 2.960494
2003-09-26 08:03:11 51°19.48 2°53.97 17.523738 4.267319 32.46337 3.027913
2003-09-26 08:03:15 51°19.49 2°53.99 17.559326 4.267003 32.45894 3.061623
2003-09-26 08:03:21 51°19.5 2°54.02 17.525582 4.26753 32.46284 3.095332
2003-09-26 08:03:27 51°19.5 2°54.05 17.525582 4.26753 32.46284 3.095332
2003-09-26 08:03:31 51°19.51 2°54.07 17.527176 4.265526 32.444653 3.129042
2003-09-26 08:03:35 51°19.51 2°54.09 17.528014 4.265315 32.442861 3.162751
2003-09-26 08:03:41 51°19.52 2°54.12 17.530236 4.267846 32.460302 3.129042
2003-09-26 08:03:47 51°19.53 2°54.15 17.531158 4.267425 32.456138 3.19646
2003-09-26 08:03:51 51°19.53 2°54.17 17.566952 4.266581 32.448971 3.263879
2003-09-26 08:03:57 51°19.54 2°54.2 17.566952 4.266581 32.448971 3.263879
2003-09-26 08:04:01 51°19.54 2°54.22 17.533758 4.267741 32.456504 3.263879
2003-09-26 08:04:07 51°19.55 2°54.24 17.533967 4.264893 32.432317 3.297589
2003-09-26 08:04:11 51°19.56 2°54.26 17.53359 4.267003 32.450813 3.297589
2003-09-26 08:04:15 51°19.56 2°54.28 17.530949 4.266686 32.445225 3.331298
2003-09-26 08:04:21 51°19.57 2°54.31 17.561966 4.266053 32.44043 3.331298
2003-09-26 08:04:27 51°19.58 2°54.34 17.561966 4.266053 32.44043 3.331298
2003-09-26 08:04:31 51°19.58 2°54.36 17.524325 4.266581 32.443749 3.331298
2003-09-26 08:04:35 51°19.59 2°54.38 17.522018 4.267424 32.446854 3.331298
2003-09-26 08:04:41 51°19.59 2°54.41 17.552075 4.265948 32.436055 3.331298
2003-09-26 08:04:47 51°19.6 2°54.44 17.516442 4.265948 32.433735 3.331298
2003-09-26 08:04:51 51°19.6 2°54.46 17.550148 4.265737 32.434263 3.297589
2003-09-26 08:04:57 51°19.61 2°54.49 17.550148 4.265737 32.434263 3.297589
2003-09-26 08:05:01 51°19.62 2°54.51 17.583292 4.265104 32.431209 3.297589
2003-09-26 08:05:07 51°19.62 2°54.54 17.580653 4.264366 32.427838 3.297589
2003-09-26 08:05:11 51°19.63 2°54.56 17.509816 4.264788 32.432001 3.331298
2003-09-26 08:05:15 51°19.63 2°54.58 17.541555 4.264788 32.434901 3.365007
2003-09-26 08:05:21 51°19.64 2°54.61 17.503189 4.264682 32.434005 3.331298
2003-09-26 08:05:27 51°19.65 2°54.63 17.503189 4.264682 32.434005 3.331298
2003-09-26 08:05:31 51°19.65 2°54.65 17.497737 4.264682 32.436905 3.466136
2003-09-26 08:05:37 51°19.66 2°54.68 17.526505 4.264577 32.435429 3.533554
2003-09-26 08:05:41 51°19.66 2°54.7 17.483558 4.264261 32.437383 3.600973
2003-09-26 08:05:47 51°19.67 2°54.73 17.479531 4.265421 32.44782 3.567264
2003-09-26 08:05:51 51°19.68 2°54.75 17.473992 4.26637 32.457627 3.533554
2003-09-26 08:05:55 51°19.68 2°54.77 17.473992 4.26637 32.457627 3.533554
2003-09-26 08:06:01 51°19.69 2°54.8 17.469712 4.26521 32.44893 3.499845
2003-09-26 08:06:07 51°19.7 2°54.83 17.465264 4.263523 32.440395 3.432426
2003-09-26 08:06:11 51°19.7 2°54.85 17.459851 4.264155 32.449257 3.466136
2003-09-26 08:06:17 51°19.71 2°54.88 17.454479 4.264472 32.457175 3.432426
2003-09-26 08:06:21 51°19.71 2°54.9 17.446714 4.263839 32.456443 3.466136
2003-09-26 08:06:27 51°19.72 2°54.93 17.446714 4.263839 32.456443 3.466136
2003-09-26 08:06:31 51°19.72 2°54.95 17.434246 4.263839 32.458768 3.533554
2003-09-26 08:06:35 51°19.72 2°54.97 17.43286 4.263417 32.45983 3.533554
2003-09-26 08:06:41 51°19.73 2°55 17.440669 4.262257 32.451127 3.499845
2003-09-26 08:06:47 51°19.73 2°55.03 17.451289 4.264156 32.473087 3.398717
2003-09-26 08:06:51 51°19.74 2°55.05 17.462117 4.264156 32.474832 3.331298
2003-09-26 08:06:55 51°19.74 2°55.07 17.462117 4.264156 32.474832 3.331298
2003-09-26 08:07:01 51°19.74 2°55.1 17.469293 4.262469 32.468039 3.23017
2003-09-26 08:07:07 51°19.75 2°55.13 17.478398 4.261098 32.463937 3.19646
2003-09-26 08:07:11 51°19.75 2°55.15 17.485488 4.260043 32.456708 3.23017
2003-09-26 08:07:17 51°19.76 2°55.19 17.491864 4.258883 32.445673 3.263879
2003-09-26 08:07:21 51°19.76 2°55.21 17.496772 4.258355 32.436535 3.297589
2003-09-26 08:07:27 51°19.77 2°55.24 17.496772 4.258355 32.436535 3.297589
2003-09-26 08:07:31 51°19.77 2°55.26 17.500589 4.260675 32.449297 3.365007
2003-09-26 08:07:37 51°19.77 2°55.29 17.504657 4.261941 32.453086 3.331298
2003-09-26 08:07:41 51°19.78 2°55.31 17.507341 4.259621 32.432773 3.331298
2003-09-26 08:07:47 51°19.78 2°55.34 17.5099 4.262785 32.450962 3.365007
2003-09-26 08:07:51 51°19.79 2°55.36 17.51229 4.260148 32.420998 3.297589
2003-09-26 08:07:57 51°19.79 2°55.39 17.51229 4.260148 32.420998 3.297589
2003-09-26 08:08:01 51°19.8 2°55.41 17.513632 4.26521 32.458222 3.297589
2003-09-26 08:08:07 51°19.8 2°55.44 17.514596 4.263839 32.446568 3.297589
2003-09-26 08:08:11 51°19.8 2°55.46 17.515938 4.264577 32.448778 3.263879
2003-09-26 08:08:15 51°19.81 2°55.48 17.517154 4.264788 32.446506 3.297589
2003-09-26 08:08:21 51°19.81 2°55.51 17.519041 4.26521 32.450672 3.263879
2003-09-26 08:08:27 51°19.82 2°55.54 17.519041 4.26521 32.450672 3.263879
2003-09-26 08:08:31 51°19.82 2°55.56 17.521431 4.265737 32.453411 3.23017
2003-09-26 08:08:37 51°19.83 2°55.59 17.523821 4.266054 32.452036 3.263879
2003-09-26 08:08:41 51°19.83 2°55.61 17.525834 4.264999 32.443075 3.297589
2003-09-26 08:08:47 51°19.84 2°55.64 17.527259 4.265104 32.44281 3.331298
2003-09-26 08:08:51 51°19.84 2°55.66 17.528475 4.265315 32.444022 3.365007
2003-09-26 08:08:55 51°19.84 2°55.68 17.528475 4.265315 32.444022 3.365007
2003-09-26 08:09:01 51°19.85 2°55.71 17.564648 4.266159 32.448288 3.331298
2003-09-26 08:09:07 51°19.85 2°55.74 17.533297 4.265843 32.442699 3.331298
2003-09-26 08:09:11 51°19.86 2°55.76 17.535393 4.265737 32.442964 3.263879
2003-09-26 08:09:17 51°19.86 2°55.79 17.537111 4.266053 32.442751 3.263879
2003-09-26 08:09:21 51°19.87 2°55.81 17.539082 4.265737 32.438323 3.263879
2003-09-26 08:09:27 51°19.87 2°55.84 17.539082 4.265737 32.438323 3.263879
2003-09-26 08:09:31 51°19.88 2°55.86 17.541387 4.264155 32.426046 3.263879
2003-09-26 08:09:35 51°19.88 2°55.88 17.541639 4.266053 32.43985 3.263879
2003-09-26 08:09:41 51°19.88 2°55.91 17.576631 4.267003 32.445012 3.331298
2003-09-26 08:09:47 51°19.89 2°55.94 17.541764 4.264999 32.426834 3.331298
2003-09-26 08:09:51 51°19.89 2°55.96 17.540549 4.269428 32.463873 3.23017
2003-09-26 08:09:55 51°19.9 2°55.98 17.540549 4.269428 32.463873 3.23017
2003-09-26 08:10:01 51°19.9 2°56.01 17.539752 4.267741 32.446061 3.19646
2003-09-26 08:10:07 51°19.91 2°56.04 17.538537 4.267846 32.445797 3.061623
2003-09-26 08:10:11 51°19.91 2°56.06 17.538243 4.267952 32.446113 3.095332
2003-09-26 08:10:15 51°19.92 2°56.08 17.538034 4.264366 32.415086 3.027913
2003-09-26 08:10:21 51°19.92 2°56.12 17.539291 4.267002 32.439212 2.994204
2003-09-26 08:10:27 51°19.93 2°56.15 17.539291 4.267002 32.439212 2.994204
2003-09-26 08:10:31 51°19.93 2°56.17 17.540339 4.266159 32.429729 3.061623
2003-09-26 08:10:35 51°19.93 2°56.19 17.542142 4.267741 32.443742 3.027913
2003-09-26 08:10:41 51°19.94 2°56.22 17.543693 4.266897 32.435418 3.162751
2003-09-26 08:10:47 51°19.94 2°56.25 17.546333 4.268584 32.449746 3.162751
2003-09-26 08:10:51 51°19.95 2°56.27 17.548513 4.26637 32.435578 3.23017
2003-09-26 08:10:57 51°19.95 2°56.3 17.548513 4.26637 32.435578 3.23017
2003-09-26 08:11:01 51°19.96 2°56.32 17.550231 4.267108 32.440688 3.365007
2003-09-26 08:11:07 51°19.96 2°56.35 17.551405 4.266581 32.434471 3.365007
2003-09-26 08:11:11 51°19.97 2°56.37 17.552327 4.26753 32.44253 3.398717
2003-09-26 08:11:15 51°19.97 2°56.39 17.552075 4.267424 32.442215 3.398717
2003-09-26 08:11:21 51°19.98 2°56.42 17.552159 4.267952 32.442633 3.365007
2003-09-26 08:11:27 51°19.98 2°56.45 17.552159 4.267952 32.442633 3.365007
2003-09-26 08:11:31 51°19.98 2°56.47 17.552746 4.267424 32.435837 3.398717
2003-09-26 08:11:35 51°19.99 2°56.49 17.551279 4.266686 32.430729 3.331298
2003-09-26 08:11:41 51°19.99 2°56.52 17.550357 4.265631 32.419458 3.365007
2003-09-26 08:11:47 51°20 2°56.55 17.549016 4.26658 32.424619 3.365007
2003-09-26 08:11:51 51°20 2°56.57 17.548345 4.266053 32.420142 3.297589
2003-09-26 08:11:55 51°20 2°56.59 17.548345 4.266053 32.420142 3.297589
2003-09-26 08:12:01 51°20.01 2°56.62 17.547758 4.266264 32.420774 3.263879
2003-09-26 08:12:07 51°20.01 2°56.65 17.546836 4.265842 32.418352 3.263879
2003-09-26 08:12:11 51°20.02 2°56.67 17.546627 4.263733 32.400449 3.297589
2003-09-26 08:12:15 51°20.02 2°56.69 17.545663 4.264998 32.411191 3.23017
2003-09-26 08:12:21 51°20.03 2°56.72 17.545663 4.264577 32.408768 3.19646
2003-09-26 08:12:27 51°20.03 2°56.75 17.545663 4.264577 32.408768 3.19646
2003-09-26 08:12:31 51°20.04 2°56.77 17.545453 4.261729 32.386914 3.19646
2003-09-26 08:12:35 51°20.04 2°56.8 17.545118 4.263733 32.402764 3.19646
2003-09-26 08:12:41 51°20.05 2°56.83 17.544447 4.263522 32.40329 3.23017
2003-09-26 08:12:47 51°20.05 2°56.86 17.543986 4.2631 32.397972 3.19646
2003-09-26 08:12:51 51°20.06 2°56.88 17.542603 4.2631 32.399709 3.263879
2003-09-26 08:12:55 51°20.06 2°56.9 17.542603 4.2631 32.399709 3.263879
2003-09-26 08:13:01 51°20.07 2°56.93 17.575626 4.262678 32.397865 3.331298
2003-09-26 08:13:07 51°20.07 2°56.96 17.539962 4.262784 32.397023 3.432426
2003-09-26 08:13:11 51°20.08 2°56.98 17.539585 4.263944 32.408029 3.466136
2003-09-26 08:13:15 51°20.08 2°57 17.538704 4.2631 32.396236 3.466136
2003-09-26 08:13:21 51°20.09 2°57.03 17.539082 4.262784 32.399339 3.499845
2003-09-26 08:13:27 51°20.09 2°57.06 17.539082 4.262784 32.399339 3.499845
2003-09-26 08:13:31 51°20.1 2°57.08 17.539585 4.262362 32.395758 3.499845
2003-09-26 08:13:35 51°20.1 2°57.1 17.540046 4.262362 32.396337 3.499845
2003-09-26 08:13:41 51°20.11 2°57.13 17.540172 4.262573 32.399286 3.533554
2003-09-26 08:13:47 51°20.11 2°57.16 17.540507 4.261202 32.389962 3.600973
2003-09-26 08:13:51 51°20.12 2°57.18 17.540717 4.259303 32.374425 3.702101
2003-09-26 08:13:55 51°20.12 2°57.2 17.540717 4.259303 32.374425 3.702101
2003-09-26 08:14:01 51°20.13 2°57.23 17.541094 4.260042 32.379535 3.76952
2003-09-26 08:14:07 51°20.13 2°57.26 17.542351 4.261624 32.391228 3.76952
2003-09-26 08:14:11 51°20.14 2°57.28 17.542058 4.259725 32.377428 3.80323
2003-09-26 08:14:15 51°20.14 2°57.3 17.542309 4.258565 32.364687 3.80323
2003-09-26 08:14:21 51°20.15 2°57.34 17.543106 4.259092 32.369163 3.80323
2003-09-26 08:14:27 51°20.15 2°57.37 17.543106 4.259092 32.369163 3.80323
2003-09-26 08:14:31 51°20.15 2°57.39 17.542268 4.258038 32.359055 3.80323
2003-09-26 08:14:37 51°20.16 2°57.42 17.542058 4.258354 32.36174 3.870648
2003-09-26 08:14:41 51°20.16 2°57.44 17.541764 4.257721 32.355791 3.870648
2003-09-26 08:14:47 51°20.17 2°57.47 17.541597 4.256561 32.349992 3.836939
2003-09-26 08:14:51 51°20.17 2°57.49 17.541555 4.257088 32.349265 3.870648
2003-09-26 08:14:55 51°20.18 2°57.51 17.541555 4.257088 32.349265 3.870648
2003-09-26 08:15:01 51°20.18 2°57.54 17.541555 4.25519 32.336044 3.76952
2003-09-26 08:15:07 51°20.19 2°57.57 17.542058 4.257405 32.353106 3.80323
2003-09-26 08:15:11 51°20.19 2°57.59 17.542435 4.25519 32.335466 3.80323
2003-09-26 08:15:15 51°20.2 2°57.61 17.542812 4.254452 32.328623 3.735811
2003-09-26 08:15:21 51°20.2 2°57.64 17.543357 4.255401 32.335522 3.735811
2003-09-26 08:15:27 51°20.21 2°57.67 17.543357 4.255401 32.335522 3.735811
2003-09-26 08:15:31 51°20.21 2°57.69 17.544699 4.254979 32.333098 3.735811
2003-09-26 08:15:37 51°20.22 2°57.72 17.544363 4.254768 32.331886 3.76952
2003-09-26 08:15:41 51°20.22 2°57.74 17.544992 4.253292 32.319356 3.735811
2003-09-26 08:15:47 51°20.22 2°57.77 17.544531 4.253608 32.321463 3.836939
2003-09-26 08:15:51 51°20.23 2°57.8 17.54386 4.253081 32.315256 3.76952
2003-09-26 08:15:57 51°20.23 2°57.83 17.54386 4.253081 32.315256 3.76952
2003-09-26 08:16:01 51°20.24 2°57.85 17.543777 4.253081 32.316988 3.702101
2003-09-26 08:16:07 51°20.24 2°57.88 17.543693 4.253292 32.317046 3.567264
2003-09-26 08:16:11 51°20.24 2°57.9 17.543567 4.253292 32.314736 3.600973
2003-09-26 08:16:15 51°20.25 2°57.92 17.544154 4.253608 32.323196 3.499845
2003-09-26 08:16:21 51°20.25 2°57.95 17.544699 4.253292 32.317623 3.466136
2003-09-26 08:16:27 51°20.26 2°57.98 17.544699 4.253292 32.317623 3.466136
2003-09-26 08:16:31 51°20.26 2°58 17.545747 4.254663 32.327524 3.432426
2003-09-26 08:16:35 51°20.27 2°58.02 17.547214 4.252659 32.311099 3.398717
2003-09-26 08:16:41 51°20.27 2°58.05 17.548932 4.25287 32.313466 3.331298
2003-09-26 08:16:47 51°20.28 2°58.08 17.551112 4.253608 32.320308 3.297589
2003-09-26 08:16:51 51°20.28 2°58.1 17.553039 4.252764 32.312571 3.263879
2003-09-26 08:16:55 51°20.29 2°58.12 17.553039 4.252764 32.312571 3.263879
2003-09-26 08:17:01 51°20.29 2°58.15 17.555596 4.256335 31.519484 3.331298
2003-09-26 08:17:07 51°20.3 2°58.18 17.558949 4.252764 32.310839 3.23017
2003-09-26 08:17:11 51°20.3 2°58.2 17.561966 4.252975 32.313206 3.263879
2003-09-26 08:17:17 51°20.31 2°58.23 17.565402 4.253502 32.316526 3.297589
2003-09-26 08:17:21 51°20.31 2°58.25 17.568754 4.25287 32.308848 3.297589
2003-09-26 08:17:27 51°20.31 2°58.28 17.568754 4.25287 32.308848 3.297589
2003-09-26 08:17:31 51°20.32 2°58.3 17.573112 4.253608 32.315111 3.331298
2003-09-26 08:17:37 51°20.32 2°58.33 17.577804 4.253081 32.308905 3.297589
2003-09-26 08:17:41 51°20.33 2°58.35 17.615919 4.252237 32.300594 3.263879
2003-09-26 08:17:47 51°20.33 2°58.39 17.584842 4.25403 32.311763 3.297589
2003-09-26 08:17:51 51°20.34 2°58.41 17.586686 4.25403 32.311186 3.263879
2003-09-26 08:17:55 51°20.34 2°58.43 17.586686 4.25403 32.311186 3.263879
2003-09-26 08:18:01 51°20.35 2°58.46 17.589827 4.255506 32.318515 3.263879
2003-09-26 08:18:07 51°20.35 2°58.49 17.592634 4.256033 32.321256 3.19646
2003-09-26 08:18:11 51°20.36 2°58.51 17.59343 4.256983 32.324689 3.23017
2003-09-26 08:18:17 51°20.36 2°58.54 17.595608 4.256877 32.321486 3.23017
2003-09-26 08:18:21 51°20.37 2°58.56 17.598833 4.257193 32.320707 3.263879
2003-09-26 08:18:27 51°20.37 2°58.59 17.598833 4.257193 32.320707 3.263879
2003-09-26 08:18:31 51°20.38 2°58.61 17.601388 4.256561 32.314765 3.263879
2003-09-26 08:18:35 51°20.38 2°58.63 17.603942 4.258248 32.324456 3.263879
2003-09-26 08:18:41 51°20.39 2°58.66 17.605701 4.258564 32.327139 3.23017
2003-09-26 08:18:47 51°20.39 2°58.69 17.605869 4.258248 32.322726 3.297589
2003-09-26 08:18:51 51°20.39 2°58.71 17.60612 4.259092 32.328148 3.297589
2003-09-26 08:18:57 51°20.4 2°58.74 17.60612 4.259092 32.328148 3.297589
2003-09-26 08:19:01 51°20.4 2°58.76 17.606413 4.259513 32.329993 3.263879
2003-09-26 08:19:07 51°20.41 2°58.79 17.60633 4.258459 32.32163 3.23017
2003-09-26 08:19:11 51°20.41 2°58.81 17.606581 4.260252 32.331636 3.331298
2003-09-26 08:19:15 51°20.42 2°58.83 17.606623 4.26099 32.336163 3.331298
2003-09-26 08:19:21 51°20.42 2°58.86 17.606162 4.260568 32.332587 3.365007
2003-09-26 08:19:27 51°20.43 2°58.89 17.606162 4.260568 32.332587 3.365007
2003-09-26 08:19:31 51°20.43 2°58.91 17.605618 4.261306 32.334806 3.398717
2003-09-26 08:19:37 51°20.44 2°58.95 17.605241 4.259935 32.326071 3.365007
2003-09-26 08:19:41 51°20.44 2°58.97 17.604906 4.26099 32.333279 3.466136
2003-09-26 08:19:47 51°20.45 2°59 17.603733 4.261306 32.338844 3.466136
2003-09-26 08:19:51 51°20.45 2°59.02 17.605869 4.259302 32.321284 3.466136
2003-09-26 08:19:57 51°20.45 2°59.05 17.605869 4.259302 32.321284 3.466136
2003-09-26 08:20:01 51°20.46 2°59.07 17.607167 4.261095 32.335326 3.466136
2003-09-26 08:20:07 51°20.46 2°59.1 17.608507 4.262677 32.348157 3.466136
2003-09-26 08:20:11 51°20.47 2°59.12 17.609596 4.26099 32.336163 3.432426
2003-09-26 08:20:15 51°20.47 2°59.14 17.610224 4.26099 32.334432 3.499845
2003-09-26 08:20:21 51°20.48 2°59.17 17.610266 4.261095 32.33648 3.432426
2003-09-26 08:20:27 51°20.48 2°59.2 17.610266 4.261095 32.33648 3.432426
2003-09-26 08:20:31 51°20.49 2°59.22 17.643633 4.261412 32.337431 3.398717
2003-09-26 08:20:37 51°20.49 2°59.25 17.609135 4.26099 32.335009 3.365007
2003-09-26 08:20:41 51°20.5 2°59.27 17.608465 4.261412 32.336854 3.365007
2003-09-26 08:20:47 51°20.5 2°59.3 17.609261 4.261306 32.334806 3.331298
2003-09-26 08:20:51 51°20.51 2°59.32 17.611648 4.261728 32.338382 3.398717
2003-09-26 08:20:55 51°20.51 2°59.34 17.611648 4.261728 32.338382 3.398717
2003-09-26 08:21:01 51°20.51 2°59.37 17.61282 4.26215 32.342534 3.432426
2003-09-26 08:21:07 51°20.52 2°59.41 17.614412 4.261623 32.337488 3.432426
2003-09-26 08:21:11 51°20.52 2°59.43 17.617259 4.262466 32.345792 3.499845
2003-09-26 08:21:15 51°20.53 2°59.45 17.618766 4.261517 32.33371 3.432426
2003-09-26 08:21:21 51°20.53 2°59.48 17.620985 4.261517 32.335441 3.331298
2003-09-26 08:21:27 51°20.54 2°59.51 17.620985 4.261517 32.335441 3.331298
2003-09-26 08:21:31 51°20.54 2°59.53 17.622744 4.261412 32.334547 3.297589
2003-09-26 08:21:35 51°20.55 2°59.55 17.623833 4.26099 32.330395 3.263879
2003-09-26 08:21:41 51°20.55 2°59.58 17.625717 4.26215 32.338496 3.263879
2003-09-26 08:21:47 51°20.56 2°59.61 17.626219 4.262572 32.339187 3.23017
2003-09-26 08:21:51 51°20.56 2°59.63 17.62647 4.263521 32.346076 3.23017
2003-09-26 08:21:57 51°20.57 2°59.66 17.62647 4.263521 32.346076 3.23017
2003-09-26 08:22:01 51°20.57 2°59.68 17.627308 4.262783 32.339821 3.297589
2003-09-26 08:22:07 51°20.58 2°59.71 17.627894 4.264365 32.351495 3.263879
2003-09-26 08:22:11 51°20.58 2°59.73 17.628647 4.262361 32.332787 3.263879
2003-09-26 08:22:15 51°20.58 2°59.75 17.629485 4.263732 32.34152 3.331298
2003-09-26 08:22:21 51°20.59 2°59.78 17.630866 4.263415 32.339416 3.331298
2003-09-26 08:22:27 51°20.6 2°59.81 17.630866 4.263415 32.339416 3.331298
2003-09-26 08:22:31 51°20.6 2°59.84 17.632248 4.265525 32.355556 3.365007
2003-09-26 08:22:37 51°20.61 2°59.87 17.633503 4.262888 32.337255 3.365007
2003-09-26 08:22:41 51°20.61 2°59.89 17.634257 4.263837 32.341837 3.331298
2003-09-26 08:22:47 51°20.62 2°59.92 17.635136 4.263626 32.34005 3.297589
2003-09-26 08:22:51 51°20.62 2°59.94 17.635764 4.264154 32.343941 3.263879
2003-09-26 08:22:57 51°20.62 2°59.97 17.635764 4.264154 32.343941 3.263879
2003-09-26 08:23:01 51°20.63 2°59.99 17.636643 4.264048 32.341317 3.297589
2003-09-26 08:23:07 51°20.63 3°0.02 17.637731 4.263099 32.33443 3.297589
2003-09-26 08:23:11 51°20.64 3°0.04 17.638443 4.264786 32.345842 3.23017
2003-09-26 08:23:17 51°20.64 3°0.07 17.639866 4.263732 32.336332 3.263879
2003-09-26 08:23:21 51°20.65 3°0.09 17.640913 4.26331 32.332182 3.23017
2003-09-26 08:23:27 51°20.65 3°0.12 17.640913 4.26331 32.332182 3.23017
2003-09-26 08:23:31 51°20.65 3°0.14 17.642294 4.264681 32.343795 3.23017
2003-09-26 08:23:37 51°20.66 3°0.18 17.643382 4.264364 32.341115 3.23017
2003-09-26 08:23:41 51°20.66 3°0.2 17.643089 4.264892 32.3427 3.23017
2003-09-26 08:23:47 51°20.67 3°0.23 17.644429 4.264575 32.34002 3.19646
2003-09-26 08:23:51 51°20.67 3°0.25 17.645015 4.264048 32.333825 3.297589
2003-09-26 08:23:55 51°20.68 3°0.27 17.645015 4.264048 32.333825 3.297589
2003-09-26 08:24:01 51°20.68 3°0.3 17.646145 4.264997 32.34244 3.263879
2003-09-26 08:24:07 51°20.69 3°0.33 17.646228 4.265841 32.347857 3.297589
2003-09-26 08:24:11 51°20.69 3°0.35 17.646982 4.264786 32.338348 3.263879
2003-09-26 08:24:15 51°20.7 3°0.37 17.646396 4.264997 32.340135 3.263879
2003-09-26 08:24:21 51°20.7 3°0.4 17.646772 4.265103 32.341028 3.23017
2003-09-26 08:24:27 51°20.71 3°0.43 17.646772 4.265103 32.341028 3.23017
2003-09-26 08:24:31 51°20.71 3°0.45 17.646521 4.265208 32.342497 3.263879
2003-09-26 08:24:35 51°20.72 3°0.47 17.679997 4.265313 32.339356 3.263879
2003-09-26 08:24:41 51°20.72 3°0.5 17.645098 4.265208 32.337887 3.263879
2003-09-26 08:24:47 51°20.73 3°0.54 17.645015 4.265419 32.340826 3.297589
2003-09-26 08:24:51 51°20.73 3°0.56 17.644596 4.266263 32.347971 3.297589
2003-09-26 08:24:57 51°20.74 3°0.59 17.644596 4.266263 32.347971 3.297589
2003-09-26 08:25:01 51°20.74 3°0.61 17.645015 4.265313 32.339356 3.297589
2003-09-26 08:25:07 51°20.75 3°0.64 17.644722 4.266263 32.3497 3.263879
2003-09-26 08:25:11 51°20.75 3°0.66 17.644596 4.266685 32.350391 3.263879
2003-09-26 08:25:17 51°20.76 3°0.69 17.643968 4.265735 32.344081 3.297589